Flight Track Log - Related Links

Times and Time Zones

All times are in EDT time to prevent confusion due to time zone crossing. See the UAL139 flight status page for this flight to view local times or setup timezone preferences in your user account.

Time Position Orientation Groundspeed Altitude Reporting Facility
EDT Latitude Longitude Course Direction KTS MPH feet Rate Location/Type
Mon 02:36:23 PM 39.8360 -104.6600 174° South 187 215 5,200  Level FlightAware
Mon 02:36:43 PM 39.8180 -104.6610 182° South 193 222 6,000 2,571 Climbing FlightAware
Mon 02:36:51 PM 39.8110 -104.6640 198° South 189 217 6,400 2,625 Climbing FlightAware
Mon 02:36:59 PM 39.8050 -104.6700 218° Southwest 192 221 6,700 1,500 Climbing FlightAware
Mon 02:37:03 PM 39.8030 -104.6740 237° Southwest 196 226 6,700 500 Level FlightAware
Mon 02:37:11 PM 39.8000 -104.6790 232° Southwest 204 235 6,800 667 Climbing FlightAware
Mon 02:37:21 PM 39.7987 -104.6846 253° West 220 253 6,900 900 Climbing FlightAware (KEIK)
Mon 02:37:31 PM 39.7978 -104.6973 265° West 234 269 7,100 1,429 Climbing FlightAware (KEIK)
Mon 02:37:42 PM 39.8047 -104.7220 290° West 247 284 7,400 1,935 Climbing FlightAware (KEIK)
Mon 02:38:02 PM 39.8170 -104.7502 300° West 263 303 8,100 2,308 Climbing FlightAware (KEIK)
Mon 02:38:21 PM 39.8256 -104.7702 299° West 271 312 8,900 2,323 Climbing FlightAware (KEIK)
Mon 02:39:04 PM 39.8527 -104.8408 297° West 297 342 10,500 1,976 Climbing FlightAware (KEIK)
Mon 02:39:43 PM 39.8724 -104.8929 296° West 332 382 11,600 1,457 Climbing FlightAware (KEIK)
Mon 02:40:14 PM 39.8990 -104.9622 297° West 362 417 12,200 1,574 Climbing FlightAware (KEIK)
Mon 02:40:44 PM 39.9260 -105.0214 301° West 374 430 13,200 2,449 Climbing FlightAware (KEIK)
Mon 02:41:03 PM 39.9516 -105.0522 317° Northwest 375 432 14,200 2,600 Climbing FlightAware (KEIK)
Mon 02:41:44 PM 40.0134 -105.0836 339° North 389 448 15,800 2,235 Climbing FlightAware (KEIK)
Mon 02:41:54 PM 40.0338 -105.0852 357° North 393 452 16,100 2,500 Climbing FlightAware (KEIK)
Mon 02:42:32 PM 40.1024 -105.0707 North 397 457 17,800 2,657 Climbing FlightAware
Mon 02:43:04 PM 40.1616 -105.0549 12° North 394 453 19,200 2,419 Climbing FlightAware
Mon 02:43:34 PM 40.2019 -105.0438 12° North 400 460 20,300 2,143 Climbing FlightAware (KEIK)
Mon 02:44:14 PM 40.2900 -105.0200 12° North 405 466 21,700 1,929 Climbing FlightAware (KEIK)
Mon 02:44:30 PM 40.3180 -105.0123 12° North 408 470 22,100 1,765 Climbing FlightAware
Mon 02:45:05 PM 40.3784 -105.0050 North 409 471 23,200 1,808 Climbing FlightAware (KEIK)
Mon 02:45:43 PM 40.4537 -105.0159 354° North 413 475 24,300 1,739 Climbing FlightAware (KEIK)
Mon 02:46:14 PM 40.4936 -105.0225 353° North 417 480 25,200 1,672 Climbing FlightAware (KEIK)
Mon 02:46:44 PM 40.5650 -105.0344 353° North 421 484 26,000 1,688 Climbing FlightAware (KEIK)
Mon 02:47:18 PM 40.6397 -105.0469 353° North 425 489 27,000 1,781 Climbing FlightAware (KEIK)
Mon 02:47:48 PM 40.6948 -105.0562 353° North 425 489 27,900 1,448 Climbing FlightAware (KEIK)
Mon 02:48:16 PM 40.7455 -105.0675 350° North 428 493 28,400 1,105 Climbing FlightAware (KEIK)
Mon 02:48:26 PM 40.7455 -105.0675 350° North 429 494 28,600 1,241 Climbing FlightAware (KEIK)
Mon 02:48:45 PM 40.8015 -105.1089 331° Northwest 437 503 29,000 1,385 Climbing FlightAware (KEIK)
Mon 02:49:18 PM 40.8423 -105.1551 319° Northwest 436 502 29,800 1,750 Climbing FlightAware (KEIK)
Mon 02:49:57 PM 40.9068 -105.2357 317° Northwest 430 495 31,100 2,264 Climbing FlightAware (KEIK)
Mon 02:50:11 PM 40.9133 -105.2457 311° West 433 498 31,800 955 Climbing FlightAware (KEIK)
Mon 02:50:41 PM 40.9606 -105.3295 307° West 435 501 31,800 632 Level FlightAware
Mon 02:51:27 PM 41.0160 -105.4301 306° West 443 510 32,600 1,059 Climbing FlightAware (KEIK)
Mon 02:52:06 PM 41.0610 -105.5120 306° West 445 512 33,300 875 Climbing FlightAware
Mon 02:52:15 PM 41.0736 -105.5352 306° West 451 519 33,300 794 Level FlightAware (KEIK)
Mon 02:53:14 PM 41.1430 -105.6630 306° West 452 520 34,200 951 Climbing FlightAware
Mon 02:53:37 PM 41.1733 -105.7189 306° West 453 521 34,600 1,040 Climbing FlightAware (KEIK)
Mon 02:54:29 PM 41.2370 -105.8360 306° West 451 519 35,500 1,034 Climbing FlightAware
Mon 02:54:35 PM 41.2444 -105.8498 306° West 451 519 35,600 441 Climbing FlightAware (KEIK)
Mon 02:55:37 PM 41.3220 -105.9860 307° West 449 517 36,000 247 Climbing FlightAware
Mon 02:56:12 PM 41.3650 -106.0620 307° West 447 514 36,000  Level FlightAware
Mon 02:56:49 PM 41.4120 -106.1450 307° West 448 516 36,000  Level FlightAware
Mon 02:57:21 PM 41.4520 -106.2160 307° West 448 516 36,000  Level FlightAware
Mon 02:58:04 PM 41.5040 -106.3100 306° West 451 519 36,000  Level FlightAware
Mon 02:58:40 PM 41.5490 -106.3900 307° West 452 520 36,000  Level FlightAware
Mon 02:59:15 PM 41.5930 -106.4690 307° West 450 518 36,000  Level FlightAware
Mon 02:59:51 PM 41.6300 -106.5380 306° West 449 517 36,000  Level FlightAware
Mon 03:00:27 PM 41.6680 -106.6070 306° West 449 517 36,000  Level FlightAware
Mon 03:01:01 PM 41.7030 -106.6720 306° West 449 517 36,000  Level FlightAware
Mon 03:01:37 PM 41.7400 -106.7410 306° West 449 517 36,000  Level FlightAware
Mon 03:02:14 PM 41.7790 -106.8120 306° West 449 517 36,000  Level FlightAware
Mon 03:02:50 PM 41.8160 -106.8810 306° West 449 517 36,000  Level FlightAware
Mon 03:03:27 PM 41.8540 -106.9520 306° West 449 517 36,000  Level FlightAware
Mon 03:04:03 PM 41.8920 -107.0210 307° West 449 517 36,000  Level FlightAware
Mon 03:04:39 PM 41.9290 -107.0900 306° West 449 517 36,000  Level FlightAware
Mon 03:05:03 PM 41.9540 -107.1360 306° West 449 517 36,000  Level FlightAware
Mon 03:05:39 PM 41.9910 -107.2050 306° West 449 517 36,000  Level FlightAware
Mon 03:06:13 PM 42.0270 -107.2700 307° West 449 517 36,000  Level FlightAware
Mon 03:06:59 PM 42.0740 -107.3590 305° West 449 517 36,000  Level FlightAware
Mon 03:07:36 PM 42.1130 -107.4300 307° West 449 517 36,000  Level FlightAware
Mon 03:08:13 PM 42.1510 -107.5010 306° West 449 517 36,000  Level FlightAware
Mon 03:08:47 PM 42.1860 -107.5670 306° West 449 517 36,000  Level FlightAware
Mon 03:09:21 PM 42.2220 -107.6320 307° West 449 517 36,000  Level FlightAware
Mon 03:10:00 PM 42.3597 -107.8842 307° West 442 509 36,000  Level Salt Center
Mon 03:11:02 PM 42.4408 -108.0361 306° West 448 516 36,000  Level Salt Center
Mon 03:12:04 PM 42.5094 -108.1661 306° West 447 514 36,000  Level Salt Center
Mon 03:13:06 PM 42.5892 -108.3211 305° West 448 516 36,000  Level Salt Center
Mon 03:14:08 PM 42.6597 -108.4528 306° West 450 518 36,000  Level Salt Center
Mon 03:15:10 PM 42.7267 -108.5847 305° West 449 517 36,000  Level Salt Center
Mon 03:16:12 PM 42.8064 -108.7381 305° West 446 513 36,000  Level Salt Center
Mon 03:17:13 PM 42.8744 -108.8714 305° West 449 517 36,000  Level Salt Center
Mon 03:18:15 PM 42.9539 -109.0267 305° West 447 514 36,000  Level Salt Center
Mon 03:19:17 PM 43.0181 -109.1536 305° West 447 514 36,000  Level Salt Center
Mon 03:20:19 PM 43.1031 -109.3211 305° West 448 516 36,000  Level Salt Center
Mon 03:21:21 PM 43.1742 -109.4614 305° West 450 518 36,000  Level Salt Center
Mon 03:22:23 PM 43.2447 -109.6028 304° West 450 518 36,000  Level Salt Center
Mon 03:23:25 PM 43.3158 -109.7444 305° West 451 519 36,000  Level Salt Center
Mon 03:24:26 PM 43.3942 -109.9008 305° West 453 521 36,000  Level Salt Center
Mon 03:25:28 PM 43.4619 -110.0353 305° West 449 517 36,000  Level Salt Center
Mon 03:26:30 PM 43.5336 -110.1847 304° West 455 524 36,000  Level Salt Center
Mon 03:27:32 PM 43.6133 -110.3453 304° West 456 525 36,000  Level Salt Center
Mon 03:28:34 PM 43.6819 -110.4836 304° West 456 525 36,000  Level Salt Center
Mon 03:29:36 PM 43.7514 -110.6242 304° West 461 531 36,000  Level Salt Center
Mon 03:30:38 PM 43.8300 -110.7906 303° West 462 532 36,000  Level Salt Center
Mon 03:31:39 PM 43.8975 -110.9317 304° West 459 528 36,000  Level Salt Center
Mon 03:32:41 PM 43.9750 -111.0964 303° West 457 526 36,000  Level Salt Center
Mon 03:37:58 PM 44.3460 -111.8860 303° West 459 528 36,000  Level FlightAware
Mon 03:38:30 PM 44.3830 -111.9640 304° West 460 529 36,000  Level FlightAware
Mon 03:39:22 PM 44.4360 -112.0810 302° West 460 529 36,000  Level FlightAware
Mon 03:39:58 PM 44.4700 -112.1590 301° West 460 529 36,000  Level FlightAware
Mon 03:40:34 PM 44.5050 -112.2360 303° West 460 529 36,000  Level FlightAware
Mon 03:41:10 PM 44.5390 -112.3130 302° West 460 529 36,000  Level FlightAware
Mon 03:41:48 PM 44.5760 -112.3950 302° West 460 529 36,000  Level FlightAware
Mon 03:42:25 PM 44.6110 -112.4750 302° West 460 529 36,000  Level FlightAware
Mon 03:43:01 PM 44.6460 -112.5530 302° West 460 529 36,000  Level FlightAware
Mon 03:43:37 PM 44.6800 -112.6300 302° West 460 529 36,000  Level FlightAware
Mon 03:44:13 PM 44.7150 -112.7080 302° West 460 529 36,000  Level FlightAware
Mon 03:44:49 PM 44.7490 -112.7860 302° West 460 529 36,000  Level FlightAware
Mon 03:45:21 PM 44.8560 -113.0090 304° West 468 539 36,000  Level FlightAware
Mon 03:45:59 PM 44.9000 -113.1090 302° West 467 537 36,000  Level FlightAware
Mon 03:46:32 PM 44.9380 -113.1920 303° West 468 539 36,000  Level FlightAware
Mon 03:47:08 PM 44.9800 -113.2880 302° West 470 541 36,000  Level FlightAware
Mon 03:48:02 PM 45.0360 -113.4170 302° West 471 542 36,000  Level FlightAware
Mon 03:48:38 PM 45.0700 -113.4980 301° West 471 542 36,000  Level FlightAware
Mon 03:49:14 PM 45.1040 -113.5790 301° West 471 542 36,000  Level FlightAware
Mon 03:49:50 PM 45.1390 -113.6600 302° West 471 542 36,000  Level FlightAware
Mon 03:50:26 PM 45.1730 -113.7410 301° West 471 542 36,000  Level FlightAware
Mon 03:51:02 PM 45.2070 -113.8220 301° West 471 542 36,000  Level FlightAware
Mon 03:51:38 PM 45.2420 -113.9040 301° West 471 542 36,000  Level FlightAware
Mon 03:52:12 PM 45.2740 -113.9800 301° West 471 542 36,000  Level FlightAware
Mon 03:52:50 PM 45.3100 -114.0660 301° West 471 542 36,000  Level FlightAware
Mon 03:53:25 PM 45.3440 -114.1450 302° West 471 542 36,000  Level FlightAware
Mon 03:54:01 PM 45.3780 -114.2260 301° West 471 542 36,000  Level FlightAware
Mon 03:54:38 PM 45.4130 -114.3100 301° West 471 542 36,000  Level FlightAware
Mon 03:55:12 PM 45.4460 -114.3870 301° West 471 542 36,000  Level FlightAware
Mon 03:55:49 PM 45.4810 -114.4710 301° West 471 542 36,000  Level FlightAware
Mon 03:56:25 PM 45.5150 -114.5520 301° West 471 542 36,000  Level FlightAware
Mon 03:57:01 PM 45.5500 -114.6340 301° West 471 542 36,000  Level FlightAware
Mon 04:00:22 PM 45.8800 -115.4080 302° West 478 550 36,000  Level FlightAware
Mon 04:00:44 PM 45.9030 -115.4660 300° West 480 552 36,000  Level FlightAware
Mon 04:01:27 PM 45.9450 -115.5690 300° West 480 552 36,000  Level FlightAware
Mon 04:02:02 PM 45.9910 -115.6820 300° West 480 552 36,000  Level FlightAware
Mon 04:02:40 PM 46.0320 -115.7830 300° West 481 554 36,000  Level FlightAware
Mon 04:03:12 PM 46.0690 -115.8740 300° West 482 555 36,000  Level FlightAware
Mon 04:03:51 PM 46.1120 -115.9830 300° West 483 556 36,000  Level FlightAware
Mon 04:04:25 PM 46.1490 -116.0760 300° West 484 557 36,000  Level FlightAware
Mon 04:04:58 PM 46.1870 -116.1720 300° West 485 558 36,000  Level FlightAware
Mon 04:05:53 PM 46.2410 -116.3090 300° West 485 558 36,000  Level FlightAware
Mon 04:06:30 PM 46.2750 -116.3980 299° West 485 558 36,000  Level FlightAware
Mon 04:07:05 PM 46.3280 -116.5280 301° West 486 559 36,000  Level FlightAware
Mon 04:07:40 PM 46.3650 -116.6220 300° West 485 558 36,000  Level FlightAware
Mon 04:08:16 PM 46.4060 -116.7280 299° West 483 556 36,000  Level FlightAware
Mon 04:08:53 PM 46.4470 -116.8330 300° West 481 554 36,000  Level FlightAware
Mon 04:09:21 PM 46.4770 -116.9090 300° West 479 551 36,000  Level FlightAware
Mon 04:10:14 PM 46.5290 -117.0460 299° West 479 551 36,000  Level FlightAware
Mon 04:10:50 PM 46.5620 -117.1330 299° West 479 551 36,000  Level FlightAware
Mon 04:11:30 PM 46.5990 -117.2290 299° West 479 551 36,000  Level FlightAware
Mon 04:12:21 PM 46.6700 -117.4130 299° West 478 550 36,000  Level FlightAware
Mon 04:12:54 PM 46.7050 -117.5050 299° West 479 551 36,000  Level FlightAware
Mon 04:13:31 PM 46.7450 -117.6120 299° West 480 552 36,000  Level FlightAware
Mon 04:14:04 PM 46.7810 -117.7080 299° West 481 554 36,000  Level FlightAware
Mon 04:14:42 PM 46.8200 -117.8120 299° West 481 554 36,000  Level FlightAware
Mon 04:15:29 PM 46.8710 -117.9490 299° West 481 554 36,000  Level FlightAware
Mon 04:16:02 PM 46.9050 -118.0410 298° West 481 554 36,000  Level FlightAware
Mon 04:16:40 PM 46.9450 -118.1480 299° West 483 556 36,000  Level FlightAware
Mon 04:17:17 PM 46.9860 -118.2580 299° West 482 555 36,000  Level FlightAware
Mon 04:17:50 PM 47.0200 -118.3530 298° West 483 556 36,000  Level FlightAware
Mon 04:18:23 PM 47.0550 -118.4470 299° West 484 557 36,000  Level FlightAware
Mon 04:19:00 PM 47.0940 -118.5540 298° West 484 557 36,000  Level FlightAware
Mon 04:19:32 PM 47.1280 -118.6470 298° West 485 558 36,000  Level FlightAware
Mon 04:20:05 PM 47.1630 -118.7440 298° West 484 557 36,000  Level FlightAware
Mon 04:20:37 PM 47.1967 -118.8380 298° West 485 558 36,000  Level FlightAware
Mon 04:21:07 PM 47.2280 -118.9260 298° West 486 559 36,000  Level FlightAware
Mon 04:21:38 PM 47.2604 -119.0160 298° West 486 559 36,000  Level FlightAware
Mon 04:22:16 PM 47.2998 -119.1260 298° West 486 559 36,000  Level FlightAware
Mon 04:22:47 PM 47.3315 -119.2150 298° West 486 559 36,000  Level FlightAware
Mon 04:23:17 PM 47.3634 -119.3060 297° West 486 559 36,000  Level FlightAware
Mon 04:23:48 PM 47.3953 -119.3960 298° West 487 560 36,000  Level FlightAware
Mon 04:24:18 PM 47.4267 -119.4850 298° West 489 563 36,000  Level FlightAware
Mon 04:24:49 PM 47.4584 -119.5760 297° West 489 563 36,000  Level FlightAware
Mon 04:25:19 PM 47.4898 -119.6660 297° West 489 563 36,000  Level FlightAware
Mon 04:25:49 PM 47.5208 -119.7550 297° West 490 564 36,000  Level FlightAware
Mon 04:26:20 PM 47.5523 -119.8450 297° West 491 565 36,000  Level FlightAware
Mon 04:26:50 PM 47.5835 -119.9350 297° West 492 566 36,000  Level FlightAware
Mon 04:27:21 PM 47.6143 -120.0250 297° West 492 566 36,000  Level FlightAware
Mon 04:27:52 PM 47.6477 -120.1221 297° West 492 566 36,000  Level FlightAware
Mon 04:27:55 PM 47.6508 -120.1310 297° West 492 566 36,000  Level FlightAware
Mon 04:28:26 PM 47.6819 -120.2220 297° West 491 565 36,000  Level FlightAware
Mon 04:28:27 PM 47.6826 -120.2245 294° West 491 565 36,000  Level FlightAware
Mon 04:28:56 PM 47.7124 -120.3120 297° West 491 565 36,000  Level FlightAware
Mon 04:29:20 PM 47.7369 -120.3841 297° West 488 562 36,000  Level FlightAware
Mon 04:29:26 PM 47.7431 -120.4020 297° West 491 565 36,000  Level FlightAware
Mon 04:29:47 PM 47.7650 -120.4670 297° West 491 565 36,000  Level FlightAware
Mon 04:29:52 PM 47.7697 -120.4810 297° West 488 562 36,000  Level FlightAware
Mon 04:30:18 PM 47.7957 -120.5580 297° West 491 565 36,000  Level FlightAware
Mon 04:30:48 PM 47.8266 -120.6500 297° West 491 565 36,000  Level FlightAware
Mon 04:31:05 PM 47.8437 -120.7007 297° West 487 560 36,000  Level FlightAware
Mon 04:31:18 PM 47.8573 -120.7410 297° West 491 565 36,000  Level FlightAware
Mon 04:31:42 PM 47.8815 -120.8136 296° West 488 562 36,000  Level FlightAware
Mon 04:31:49 PM 47.8879 -120.8330 296° West 491 565 36,000  Level FlightAware
Mon 04:32:19 PM 47.9183 -120.9240 297° West 491 565 36,000  Level FlightAware
Mon 04:32:49 PM 47.9484 -121.0150 296° West 490 564 36,000  Level FlightAware
Mon 04:32:53 PM 47.9528 -121.0282 296° West 487 560 36,000  Level FlightAware
Mon 04:33:09 PM 47.9688 -121.0766 296° West 487 560 36,000  Level FlightAware
Mon 04:33:20 PM 47.9788 -121.1070 296° West 491 565 36,000  Level FlightAware
Mon 04:33:44 PM 47.9979 -121.1651 296° West 491 565 36,000  Level FlightAware
Mon 04:33:50 PM 48.0071 -121.1930 296° West 491 565 36,000  Level FlightAware
Mon 04:33:57 PM 48.0159 -121.2196 296° West 491 565 36,000  Level FlightAware
Mon 04:34:21 PM 48.0400 -121.2930 296° West 491 565 36,000  Level FlightAware
Mon 04:34:50 PM 48.0688 -121.3813 296° West 488 562 36,000  Level FlightAware
Mon 04:34:51 PM 48.0698 -121.3840 300° West 492 566 36,000  Level FlightAware
Mon 04:34:59 PM 48.0761 -121.4038 296° West 492 566 36,000  Level FlightAware
Mon 04:35:21 PM 48.0995 -121.4760 296° West 492 566 36,000  Level FlightAware
Mon 04:35:30 PM 48.1089 -121.5044 296° West 491 565 36,000  Level FlightAware
Mon 04:35:51 PM 48.1296 -121.5680 296° West 492 566 36,000  Level FlightAware
Mon 04:36:03 PM 48.1411 -121.6039 296° West 489 563 36,000  Level FlightAware
Mon 04:36:21 PM 48.1595 -121.6610 296° West 492 566 36,000  Level FlightAware
Mon 04:36:33 PM 48.1710 -121.6962 296° West 492 566 36,000  Level FlightAware
Mon 04:36:52 PM 48.1895 -121.7540 296° West 492 566 36,000  Level FlightAware
Mon 04:37:04 PM 48.2012 -121.7905 296° West 492 566 36,000  Level FlightAware
Mon 04:37:22 PM 48.2191 -121.8460 296° West 491 565 36,000  Level FlightAware
Mon 04:37:44 PM 48.2408 -121.9143 296° West 492 566 36,000  Level FlightAware
Mon 04:37:53 PM 48.2493 -121.9410 295° West 492 566 36,000  Level FlightAware
Mon 04:38:14 PM 48.2677 -121.9985 296° West 493 567 36,000  Level FlightAware
Mon 04:38:23 PM 48.2783 -122.0320 295° West 493 567 36,000  Level FlightAware
Mon 04:38:46 PM 48.3017 -122.1055 296° West 492 566 36,000  Level FlightAware
Mon 04:38:53 PM 48.3086 -122.1270 296° West 492 566 36,000  Level FlightAware
Mon 04:39:17 PM 48.3315 -122.1996 295° West 491 565 36,000  Level FlightAware
Mon 04:39:24 PM 48.3383 -122.2210 296° West 491 565 36,000  Level FlightAware
Mon 04:39:49 PM 48.3629 -122.2992 295° West 491 565 36,000  Level FlightAware
Mon 04:39:55 PM 48.3676 -122.3140 295° West 491 565 36,000  Level FlightAware
Mon 04:40:20 PM 48.3927 -122.3940 295° West 491 565 36,000  Level FlightAware
Mon 04:40:27 PM 48.3994 -122.4160 295° West 491 565 36,000  Level FlightAware
Mon 04:40:54 PM 48.4210 -122.4846 295° West 489 563 36,000  Level FlightAware
Mon 04:41:10 PM 48.4406 -122.5470 295° West 489 563 36,000  Level FlightAware
Mon 04:41:24 PM 48.4498 -122.5769 295° West 489 563 36,000  Level FlightAware
Mon 04:41:41 PM 48.4701 -122.6420 295° West 490 564 36,000  Level FlightAware
Mon 04:41:54 PM 48.4730 -122.6514 295° West 491 565 36,000  Level FlightAware
Mon 04:42:11 PM 48.4991 -122.7360 295° West 492 566 36,000  Level FlightAware
Mon 04:42:24 PM 48.5115 -122.7760 295° West 492 566 36,000  Level FlightAware
Mon 04:42:41 PM 48.5278 -122.8290 295° West 490 564 36,000  Level FlightAware
Mon 04:42:54 PM 48.5378 -122.8614 295° West 490 564 36,000  Level FlightAware
Mon 04:43:12 PM 48.5568 -122.9230 295° West 490 564 36,000  Level FlightAware
Mon 04:43:24 PM 48.5647 -122.9493 295° West 489 563 36,000  Level FlightAware
Mon 04:43:42 PM 48.5855 -123.0170 295° West 489 563 36,000  Level FlightAware
Mon 04:43:54 PM 48.5946 -123.0469 295° West 489 563 36,000  Level FlightAware
Mon 04:44:12 PM 48.6139 -123.1100 295° West 488 562 36,000  Level FlightAware
Mon 04:44:24 PM 48.6251 -123.1469 295° West 488 562 36,000  Level FlightAware
Mon 04:44:43 PM 48.6432 -123.2060 295° West 488 562 36,000  Level FlightAware
Mon 04:44:54 PM 48.6532 -123.2396 294° West 488 562 36,000  Level FlightAware
Mon 04:45:13 PM 48.6712 -123.2990 295° West 488 562 36,000  Level FlightAware
Mon 04:45:34 PM 48.6927 -123.3703 295° West 486 559 36,000  Level FlightAware (FAKM / KIM)
Mon 04:45:44 PM 48.7023 -123.4019 295° West 486 559 36,000  Level FlightAware (FAKM / KIM)
Mon 04:45:58 PM 48.7130 -123.4370 295° West 490 564 36,000  Level FlightAware
Mon 04:46:14 PM 48.7285 -123.4830 297° West 490 564 36,000  Level FlightAware
Mon 04:46:25 PM 48.7438 -123.5251 299° West 491 565 36,000  Level FlightAware (FAKM / KIM)
Mon 04:46:35 PM 48.7555 -123.5552 300° West 487 560 36,000  Level FlightAware (FAKM / KIM)
Mon 04:46:50 PM 48.7706 -123.5930 301° West 491 565 36,000  Level FlightAware
Mon 04:47:05 PM 48.7911 -123.6437 302° West 487 560 36,000  Level FlightAware (FAKM / KIM)
Mon 04:47:20 PM 48.8054 -123.6800 301° West 491 565 36,000  Level FlightAware
Mon 04:47:36 PM 48.8272 -123.7343 301° West 488 562 36,000  Level FlightAware (FAKM / KIM)
Mon 04:47:50 PM 48.8415 -123.7700 301° West 492 566 36,000  Level FlightAware
Mon 04:47:54 PM 48.8465 -123.7826 301° West 488 562 36,000  Level FlightAware
Mon 04:48:04 PM 48.8563 -123.8074 301° West 492 566 36,000  Level FlightAware
Mon 04:48:21 PM 48.8776 -123.8610 301° West 492 566 36,000  Level FlightAware
Mon 04:48:24 PM 48.8811 -123.8698 301° West 488 562 36,000  Level FlightAware
Mon 04:48:33 PM 48.8924 -123.8981 301° West 487 560 36,000  Level FlightAware
Mon 04:49:04 PM 48.9253 -123.9811 301° West 491 565 36,000  Level FlightAware
Mon 04:49:06 PM 48.9300 -123.9930 301° West 490 564 36,000  Level FlightAware
Mon 04:49:25 PM 48.9526 -124.0501 301° West 487 560 36,000  Level FlightAware
Mon 04:49:33 PM 48.9642 -124.0797 301° West 487 560 36,000  Level FlightAware (FAKM / KIM)
Mon 04:49:37 PM 48.9665 -124.0860 299° West 491 565 36,000  Level FlightAware
Mon 04:49:44 PM 48.9767 -124.1116 301° West 487 560 36,000  Level FlightAware (FAKM / KIM)
Mon 04:49:49 PM 48.9804 -124.1210 301° West 490 564 36,000  Level FlightAware
Mon 04:49:54 PM 48.9884 -124.1412 301° West 487 560 36,000  Level FlightAware (FAKM / KIM)
Mon 04:50:03 PM 48.9965 -124.1620 301° West 490 564 36,000  Level FlightAware
Mon 04:50:13 PM 49.0102 -124.1969 301° West 487 560 36,000  Level FlightAware (FAKM / KIM)
Mon 04:50:23 PM 49.0218 -124.2265 301° West 488 562 36,000  Level FlightAware (FAKM / KIM)
Mon 04:50:34 PM 49.0317 -124.2520 301° West 492 566 36,000  Level FlightAware
Mon 04:50:51 PM 49.0520 -124.3037 301° West 488 562 36,000  Level FlightAware
Mon 04:51:05 PM 49.0682 -124.3450 301° West 492 566 36,000  Level FlightAware
Mon 04:51:24 PM 49.0706 -124.3512 300° West 491 565 36,000  Level FlightAware
Mon 04:51:56 PM 49.1300 -124.5037 301° West 487 560 36,000  Level FlightAware (FAKM / KIM)
Mon 04:52:28 PM 49.1644 -124.5928 301° West 492 566 36,000  Level FlightAware
Mon 04:52:50 PM 49.1895 -124.6580 301° West 491 565 36,000  Level FlightAware
Mon 04:53:20 PM 49.2170 -124.7291 301° West 494 568 36,000  Level FlightAware
Mon 04:53:50 PM 49.2583 -124.8371 300° West 494 568 36,000  Level FlightAware
Mon 04:54:21 PM 49.2967 -124.9375 300° West 489 563 36,000  Level FlightAware (FAKM / KIM)
Mon 04:54:56 PM 49.3328 -125.0324 300° West 492 566 36,000  Level FlightAware
Mon 04:55:26 PM 49.3715 -125.1344 300° West 491 565 36,000  Level FlightAware (FAKM / KIM)
Mon 04:55:58 PM 49.4015 -125.2138 300° West 491 565 36,000  Level FlightAware
Mon 04:56:36 PM 49.4509 -125.3450 300° West 491 565 36,000  Level FlightAware (FAKM / KIM)
Mon 04:57:08 PM 49.4840 -125.4336 300° West 490 564 36,000  Level FlightAware
Mon 04:57:38 PM 49.5178 -125.5240 300° West 490 564 36,000  Level FlightAware
Mon 04:58:09 PM 49.5553 -125.6247 300° West 490 564 36,000  Level FlightAware (FAKM / KIM)
Mon 04:58:41 PM 49.5806 -125.6928 300° West 489 563 36,000  Level FlightAware
Mon 04:59:18 PM 49.6292 -125.8246 300° West 489 563 36,000  Level FlightAware
Mon 05:00:07 PM 49.6711 -125.9384 300° West 488 562 36,000  Level FlightAware
Mon 05:00:39 PM 49.7195 -126.0707 300° West 487 560 36,000  Level FlightAware
Mon 05:01:37 PM 49.7820 -126.2430 299° West 487 560 36,000  Level FlightAware
Mon 05:02:12 PM 49.8210 -126.3500 299° West 486 559 36,000  Level FlightAware
Mon 05:03:02 PM 49.8750 -126.4990 299° West 486 559 36,000  Level FlightAware
Mon 05:03:32 PM 49.9080 -126.5920 299° West 486 559 36,000 375 Level FlightAware
Mon 05:04:22 PM 49.9620 -126.7450 299° West 487 560 36,500 759 Climbing FlightAware
Mon 05:04:59 PM 50.0010 -126.8520 300° West 484 557 37,100 947 Climbing FlightAware
Mon 05:05:57 PM 50.0630 -127.0280 299° West 481 554 38,000 524 Climbing FlightAware
Mon 05:06:42 PM 50.1110 -127.1670 298° West 479 551 38,000  Level FlightAware
Mon 05:07:26 PM 50.1580 -127.3010 299° West 475 547 38,000  Level FlightAware
Mon 05:07:56 PM 50.1900 -127.3920 299° West 475 547 38,000  Level FlightAware
Mon 05:08:36 PM 50.2250 -127.4950 298° West 475 547 38,000  Level FlightAware
Mon 05:09:12 PM 50.2560 -127.5880 298° West 475 547 38,000  Level FlightAware
Mon 05:09:47 PM 50.2900 -127.7200 292° West 474 545 38,000  Level FlightAware
Mon 05:10:32 PM 50.3280 -127.8590 293° West 474 545 38,000  Level FlightAware
Mon 05:11:15 PM 50.3610 -127.9870 292° West 474 545 38,000  Level FlightAware
Mon 05:12:03 PM 50.3960 -128.1250 292° West 474 545 38,000  Level FlightAware
Mon 05:12:43 PM 50.4240 -128.2340 292° West 474 545 38,000  Level FlightAware
Mon 05:13:21 PM 50.4510 -128.3370 292° West 474 545 38,000  Level FlightAware
Mon 05:13:57 PM 50.4760 -128.4340 292° West 474 545 38,000  Level FlightAware
Mon 05:14:33 PM 50.5010 -128.5320 292° West 474 545 38,000  Level FlightAware
Mon 05:15:10 PM 50.5270 -128.6330 292° West 474 545 38,000  Level FlightAware
Mon 05:15:46 PM 50.5520 -128.7310 292° West 474 545 38,000  Level FlightAware
Mon 05:16:22 PM 50.5770 -128.8290 292° West 474 545 38,000  Level FlightAware
Mon 05:16:58 PM 50.6020 -128.9270 292° West 474 545 38,000  Level FlightAware
Mon 05:17:34 PM 50.6270 -129.0250 292° West 474 545 38,000  Level FlightAware
Mon 05:18:09 PM 50.6520 -129.1200 293° West 474 545 38,000  Level FlightAware
Mon 05:18:46 PM 50.6770 -129.2210 291° West 474 545 38,000  Level FlightAware
Mon 05:19:22 PM 50.7030 -129.3190 293° West 474 545 38,000  Level FlightAware
Mon 05:19:58 PM 50.7280 -129.4170 292° West 474 545 38,000  Level FlightAware
Mon 05:20:34 PM 50.7530 -129.5160 292° West 474 545 38,000  Level FlightAware
Mon 05:21:11 PM 50.7790 -129.6170 292° West 474 545 38,000  Level FlightAware
Mon 05:21:47 PM 50.8040 -129.7150 292° West 474 545 38,000  Level FlightAware
Mon 05:22:30 PM 50.8833 -130.1833 292° West 470 541 38,000  Level Vancouver Center
Mon 05:23:30 PM 50.9167 -130.3667 286° West 470 541 38,000  Level Vancouver Center
Mon 05:24:30 PM 50.9833 -130.5667 298° West 470 541 38,000  Level Vancouver Center
Mon 05:25:30 PM 51.0167 -130.7667 285° West 470 541 38,000  Level Vancouver Center
Mon 05:26:30 PM 51.0500 -130.9833 284° West 460 529 38,000  Level Vancouver Center
Mon 05:27:30 PM 51.1167 -131.1500 303° West 460 529 38,000  Level Vancouver Center
Mon 05:28:30 PM 51.1500 -131.3667 284° West 460 529 38,000  Level Vancouver Center
Mon 05:29:30 PM 51.1833 -131.5333 288° West 450 518 38,000  Level Vancouver Center
Mon 05:30:30 PM 51.2500 -131.7333 298° West 470 541 38,000  Level Vancouver Center
Mon 05:31:30 PM 51.2833 -131.9167 286° West 460 529 38,000  Level Vancouver Center
Mon 05:32:30 PM 51.3167 -132.1167 285° West 460 529 38,000  Level Vancouver Center
Mon 05:33:30 PM 51.3500 -132.3167 285° West 460 529 38,000  Level Vancouver Center
Mon 05:34:30 PM 51.4000 -132.5167 292° West 460 529 38,000  Level Vancouver Center
Mon 05:35:30 PM 51.4333 -132.7000 286° West 460 529 38,000  Level Vancouver Center
Mon 05:36:30 PM 51.4833 -132.8667 296° West 460 529 38,000  Level Vancouver Center
Mon 05:37:30 PM 51.5167 -133.1000 283° West 460 529 38,000  Level Vancouver Center
Mon 05:38:30 PM 51.5667 -133.2667 296° West 460 529 38,000  Level Vancouver Center
Mon 05:39:30 PM 51.6000 -133.5000 283° West 470 541 38,000  Level Vancouver Center
Mon 05:40:30 PM 51.6333 -133.6667 288° West 460 529 38,000  Level Vancouver Center
Mon 05:41:30 PM 51.6833 -133.8833 290° West 460 529 38,000  Level Vancouver Center
Mon 05:42:30 PM 51.7167 -134.0667 286° West 460 529 38,000  Level Vancouver Center
Mon 05:43:30 PM 51.7500 -134.2833 284° West 460 529 38,000  Level Vancouver Center
Mon 05:44:30 PM 51.7833 -134.4500 288° West 460 529 38,000  Level Vancouver Center
Mon 05:45:30 PM 51.8333 -134.6667 291° West 460 529 38,000  Level Vancouver Center
Mon 05:46:30 PM 51.8667 -134.8500 286° West 450 518 38,000  Level Vancouver Center
Mon 05:47:30 PM 51.9000 -135.0333 286° West 450 518 38,000  Level Vancouver Center
Mon 05:48:30 PM 51.9333 -135.2333 285° West 450 518 38,000  Level Vancouver Center
Mon 05:49:30 PM 51.9833 -135.4333 292° West 450 518 38,000  Level Vancouver Center
Mon 05:50:04 PM 52.0000 -135.4500 292° West 449 517 38,000  Level Oakland Oceanic
Mon 05:51:30 PM 52.0500 -135.8167 292° West 450 518 38,000  Level Vancouver Center
Mon 05:52:30 PM 52.1000 -136.0167 292° West 450 518 38,000  Level Vancouver Center
Mon 05:53:30 PM 52.1333 -136.1833 288° West 450 518 38,000  Level Vancouver Center
Mon 05:54:30 PM 52.1833 -136.3667 294° West 450 518 38,000  Level Vancouver Center
Mon 05:55:30 PM 52.2333 -136.5667 292° West 440 506 38,000  Level Vancouver Center
Mon 05:56:30 PM 52.2833 -136.7500 294° West 450 518 38,000  Level Vancouver Center
Mon 05:57:30 PM 52.3167 -136.9333 287° West 440 506 38,000  Level Vancouver Center
Mon 05:58:30 PM 52.3500 -137.1333 285° West 450 518 38,000  Level Vancouver Center
Mon 05:59:30 PM 52.4000 -137.3167 294° West 450 518 38,000  Level Vancouver Center
Mon 06:00:30 PM 52.4500 -137.5000 294° West 440 506 38,000  Level Vancouver Center
Mon 06:01:30 PM 52.4833 -137.7000 285° West 430 495 38,000  Level Vancouver Center
Mon 06:01:48 PM 52.5167 -137.6667 290° West 444 511 38,000  Level Oakland Oceanic
Mon 06:02:30 PM 52.5167 -137.8833 290° West 440 506 38,000  Level Vancouver Center
Mon 06:03:30 PM 52.5667 -138.0833 292° West 450 518 38,000  Level Vancouver Center
Mon 06:04:30 PM 52.6000 -138.2667 287° West 440 506 38,000  Level Vancouver Center
Mon 06:05:30 PM 52.6500 -138.4500 294° West 470 541 38,000  Level Vancouver Center
Mon 06:06:30 PM 52.7000 -138.6667 291° West 450 518 38,000  Level Vancouver Center
Mon 06:07:30 PM 52.7167 -138.8333 279° West 460 529 38,000  Level Vancouver Center
Mon 06:09:00 PM 52.7874 -139.1187 292° West  Level FlightAware
Mon 06:13:56 PM 53.0000 -140.0000 301° West 457 526 38,000  Level Oakland Oceanic
Mon 06:15:42 PM 53.1167 -140.3333 301° West 452 520 38,000  Level Oakland Oceanic
Mon 06:16:00 PM 53.1538 -140.4258 301° West  Level FlightAware
Mon 06:17:00 PM 53.2174 -140.6042 301° West  Level FlightAware
Mon 06:18:00 PM 53.2808 -140.7831 301° West  Level FlightAware
Mon 06:19:00 PM 53.3439 -140.9626 301° West  Level FlightAware
Mon 06:20:00 PM 53.3943 -141.1001 300° West 457 526 38,000  Level FlightAware
Mon 06:21:00 PM 53.4591 -141.2854 300° West 457 526 38,000  Level FlightAware
Mon 06:22:00 PM 53.5566 -141.5790 300° West 452 520 38,000  Level FlightAware
Mon 06:23:00 PM 53.6184 -141.7590 300° West 452 520 38,000  Level FlightAware
Mon 06:24:00 PM 53.6800 -141.9396 300° West 452 520 38,000  Level FlightAware
Mon 06:25:00 PM 53.7412 -142.1207 300° West 452 520 38,000  Level FlightAware
Mon 06:26:00 PM 53.8022 -142.3023 300° West 452 520 38,000  Level FlightAware
Mon 06:27:00 PM 53.8629 -142.4845 299° West 452 520 38,000  Level FlightAware
Mon 06:28:00 PM 53.9233 -142.6672 299° West 452 520 38,000  Level FlightAware
Mon 06:29:00 PM 53.9834 -142.8504 299° West 452 520 38,000  Level FlightAware
Mon 06:29:37 PM 53.9667 -142.7833 299° West 436 502 38,000  Level Oakland Oceanic
Mon 06:30:00 PM 54.0433 -143.0341 299° West 452 520 38,000  Level FlightAware
Mon 06:31:00 PM 54.1029 -143.2184 299° West 452 520 38,000  Level FlightAware
Mon 06:32:00 PM 54.1622 -143.4032 299° West 452 520 38,000  Level FlightAware
Mon 06:33:00 PM 54.2212 -143.5885 298° West 452 520 38,000  Level FlightAware
Mon 06:34:00 PM 54.2799 -143.7744 298° West 452 520 38,000  Level FlightAware
Mon 06:35:00 PM 54.3155 -143.8740 298° West 436 502 38,000  Level FlightAware
Mon 06:36:00 PM 54.3727 -144.0576 298° West 436 502 38,000  Level FlightAware
Mon 06:37:00 PM 54.4296 -144.2416 298° West 436 502 38,000  Level FlightAware
Mon 06:38:00 PM 54.4862 -144.4262 298° West 436 502 38,000  Level FlightAware
Mon 06:39:00 PM 54.5426 -144.6113 298° West 436 502 38,000  Level FlightAware
Mon 06:40:00 PM 54.5986 -144.7969 297° West 436 502 38,000  Level FlightAware
Mon 06:41:00 PM 54.6544 -144.9830 297° West 436 502 38,000  Level FlightAware
Mon 06:42:00 PM 54.7099 -145.1697 297° West 436 502 38,000  Level FlightAware
Mon 06:43:00 PM 54.7651 -145.3568 297° West 436 502 38,000  Level FlightAware
Mon 06:43:30 PM 54.7500 -145.3333 297° West 447 514 38,000  Level Oakland Oceanic
Mon 06:44:00 PM 54.8200 -145.5445 297° West 436 502 38,000  Level FlightAware
Mon 06:45:00 PM 54.8746 -145.7326 297° West 436 502 38,000  Level FlightAware
Mon 06:46:00 PM 54.9289 -145.9213 297° West 436 502 38,000  Level FlightAware
Mon 06:47:00 PM 54.9830 -146.1105 296° West 436 502 38,000  Level FlightAware
Mon 06:48:00 PM 55.0367 -146.3002 296° West 436 502 38,000  Level FlightAware
Mon 06:49:00 PM 55.0790 -146.4723 296° West 447 514 38,000  Level FlightAware
Mon 06:50:00 PM 55.1328 -146.6639 296° West 447 514 38,000  Level FlightAware
Mon 06:51:00 PM 55.1863 -146.8560 296° West 447 514 38,000  Level FlightAware
Mon 06:52:00 PM 55.2395 -147.0487 296° West 447 514 38,000  Level FlightAware
Mon 06:53:00 PM 55.2924 -147.2419 296° West 447 514 38,000  Level FlightAware
Mon 06:54:00 PM 55.3449 -147.4356 295° West 447 514 38,000  Level FlightAware
Mon 06:55:00 PM 55.3972 -147.6298 295° West 447 514 38,000  Level FlightAware
Mon 06:56:00 PM 55.4492 -147.8245 295° West 447 514 38,000  Level FlightAware
Mon 06:57:00 PM 55.5008 -148.0197 295° West 447 514 38,000  Level FlightAware
Mon 06:57:11 PM 55.5167 -148.0667 295° West 462 532 38,000  Level Oakland Oceanic
Mon 06:58:00 PM 55.5522 -148.2155 295° West 447 514 38,000  Level FlightAware
Mon 06:59:00 PM 55.6032 -148.4117 295° West 447 514 38,000  Level FlightAware
Mon 07:00:00 PM 55.6539 -148.6085 294° West 447 514 38,000  Level FlightAware
Mon 07:01:00 PM 55.7043 -148.8058 294° West 447 514 38,000  Level FlightAware
Mon 07:02:00 PM 55.7544 -149.0035 294° West 447 514 38,000  Level FlightAware
Mon 07:03:00 PM 55.8423 -149.3502 294° West 462 532 38,000  Level FlightAware
Mon 07:04:00 PM 55.8952 -149.5662 294° West 462 532 38,000  Level FlightAware
Mon 07:05:00 PM 55.9478 -149.7828 293° West 462 532 38,000  Level FlightAware
Mon 07:06:00 PM 56.0000 -150.0000 284° West 462 532 38,000  Level FlightAware
Mon 07:06:33 PM 56.0000 -150.0000 284° West 454 522 38,000  Level Oakland Oceanic
Mon 07:07:00 PM 56.0315 -150.2208 284° West 462 532 38,000  Level FlightAware
Mon 07:08:00 PM 56.0626 -150.4419 284° West 462 532 38,000  Level FlightAware
Mon 07:09:00 PM 56.0933 -150.6634 284° West 462 532 38,000  Level FlightAware
Mon 07:10:00 PM 56.1237 -150.8852 284° West 462 532 38,000  Level FlightAware
Mon 07:11:00 PM 56.1536 -151.1074 283° West 462 532 38,000  Level FlightAware
Mon 07:11:07 PM 56.1333 -151.0000 284° West 464 534 38,000  Level Oakland Oceanic
Mon 07:12:00 PM 56.1792 -151.3002 283° West 454 522 38,000  Level FlightAware
Mon 07:13:00 PM 56.2077 -151.5181 283° West 454 522 38,000  Level FlightAware
Mon 07:14:00 PM 56.2359 -151.7363 283° West 454 522 38,000  Level FlightAware
Mon 07:15:00 PM 56.2637 -151.9548 283° West 454 522 38,000  Level FlightAware
Mon 07:16:00 PM 56.2911 -152.1736 283° West 454 522 38,000  Level FlightAware
Mon 07:17:00 PM 56.3086 -152.3557 283° West 464 534 38,000  Level FlightAware
Mon 07:18:00 PM 56.3363 -152.5828 282° West 464 534 38,000  Level FlightAware
Mon 07:19:00 PM 56.3637 -152.8103 282° West 464 534 38,000  Level FlightAware
Mon 07:20:00 PM 56.3906 -153.0381 282° West 464 534 38,000  Level FlightAware
Mon 07:21:00 PM 56.4171 -153.2662 282° West 464 534 38,000  Level FlightAware
Mon 07:22:00 PM 56.4432 -153.4946 282° West 464 534 38,000  Level FlightAware
Mon 07:22:19 PM 56.4500 -153.5500 281° West 460 529 38,000  Level Anchorage Center
Mon 07:23:00 PM 56.4689 -153.7233 281° West 464 534 38,000  Level FlightAware
Mon 07:23:19 PM 56.4667 -153.7833 277° West 460 529 38,000  Level Anchorage Center
Mon 07:24:00 PM 56.4941 -153.9524 281° West 464 534 38,000  Level FlightAware
Mon 07:24:20 PM 56.5000 -154.0000 286° West 450 518 38,000  Level Anchorage Center
Mon 07:25:00 PM 56.5190 -154.1817 281° West 464 534 38,000  Level FlightAware
Mon 07:25:20 PM 56.5167 -154.2333 277° West 460 529 38,000  Level Anchorage Center
Mon 07:26:00 PM 56.5434 -154.4114 281° West 464 534 38,000  Level FlightAware
Mon 07:26:20 PM 56.5500 -154.4667 285° West 460 529 38,000  Level Anchorage Center
Mon 07:27:00 PM 56.5674 -154.6413 281° West 464 534 38,000  Level FlightAware
Mon 07:28:18 PM 56.5833 -154.9333 278° West 460 529 38,000  Level Anchorage Center
Mon 07:29:18 PM 56.6167 -155.1500 286° West 460 529 38,000  Level Anchorage Center
Mon 07:30:22 PM 56.6333 -155.3833 277° West 460 529 38,000  Level Anchorage Center
Mon 07:31:22 PM 56.6500 -155.6167 277° West 460 529 38,000  Level Anchorage Center
Mon 07:32:23 PM 56.6833 -155.8500 285° West 460 529 38,000  Level Anchorage Center
Mon 07:33:23 PM 56.7000 -156.0833 278° West 470 541 38,000  Level Anchorage Center
Mon 07:34:23 PM 56.7167 -156.3167 278° West 460 529 38,000  Level Anchorage Center
Mon 07:35:24 PM 56.7500 -156.5500 285° West 470 541 38,000  Level Anchorage Center
Mon 07:36:24 PM 56.7667 -156.8000 277° West 470 541 38,000  Level Anchorage Center
Mon 07:37:24 PM 56.7833 -157.0333 278° West 470 541 38,000  Level Anchorage Center
Mon 07:38:24 PM 56.8000 -157.2667 278° West 470 541 38,000  Level Anchorage Center
Mon 07:39:24 PM 56.8167 -157.5000 278° West 470 541 38,000  Level Anchorage Center
Mon 07:40:25 PM 56.8333 -157.7500 277° West 470 541 38,000  Level Anchorage Center
Mon 07:41:26 PM 56.8500 -157.9833 278° West 460 529 38,000  Level Anchorage Center
Mon 07:42:26 PM 56.8667 -158.2167 278° West 460 529 38,000  Level Anchorage Center
Mon 07:43:26 PM 56.8833 -158.4500 278° West 460 529 38,000  Level Anchorage Center
Mon 07:44:27 PM 56.9000 -158.7000 277° West 470 541 38,000  Level Anchorage Center
Mon 07:45:27 PM 56.9167 -158.9333 278° West 470 541 38,000  Level Anchorage Center
Mon 07:46:27 PM 56.9333 -159.1667 278° West 470 541 38,000  Level Anchorage Center
Mon 07:47:28 PM 56.9500 -159.4167 277° West 470 541 38,000  Level Anchorage Center
Mon 07:48:28 PM 56.9667 -159.7000 276° West 480 552 38,000  Level Anchorage Center
Mon 07:49:28 PM 56.9833 -159.9333 278° West 470 541 38,000  Level Anchorage Center
Mon 07:50:29 PM 57.0000 -160.1833 277° West 470 541 38,000  Level Anchorage Center
Mon 07:51:29 PM 57.0167 -160.4167 278° West 470 541 38,000 450 Level Anchorage Center
Mon 07:52:29 PM 57.0333 -160.6667 277° West 470 541 38,900 793 Climbing Anchorage Center
Mon 07:53:30 PM 57.0333 -160.9000 270° West 470 541 39,600 545 Climbing Anchorage Center
Mon 07:54:30 PM 57.0500 -161.1500 277° West 470 541 40,000 200 Climbing Anchorage Center
Mon 07:55:30 PM 57.0667 -161.4000 277° West 480 552 40,000  Level Anchorage Center
Mon 07:56:31 PM 57.0667 -161.6333 270° West 470 541 40,000  Level Anchorage Center
Mon 07:57:31 PM 57.0833 -161.8833 277° West 470 541 40,000  Level Anchorage Center
Mon 07:58:31 PM 57.1000 -162.1167 278° West 470 541 40,000  Level Anchorage Center
Mon 07:59:32 PM 57.1000 -162.3667 270° West 480 552 40,000  Level Anchorage Center
Mon 08:00:32 PM 57.1167 -162.6167 277° West 470 541 40,000  Level Anchorage Center
Mon 08:01:33 PM 57.1167 -162.8667 270° West 470 541 40,000  Level Anchorage Center
Mon 08:02:33 PM 57.1333 -163.1000 278° West 470 541 40,000  Level Anchorage Center
Mon 08:03:33 PM 57.1333 -163.3500 270° West 470 541 40,000  Level Anchorage Center
Mon 08:04:34 PM 57.1333 -163.6000 270° West 470 541 40,000  Level Anchorage Center
Mon 08:05:34 PM 57.1500 -163.8500 277° West 470 541 40,000  Level Anchorage Center
Mon 08:06:34 PM 57.1500 -164.0833 270° West 470 541 40,000  Level Anchorage Center
Mon 08:07:21 PM 57.1667 -164.2833 279° West 470 541 40,000  Level Anchorage Center
Mon 08:08:21 PM 57.1667 -164.5333 270° West 480 552 40,000  Level Anchorage Center
Mon 08:09:21 PM 57.1667 -164.7833 270° West 470 541 40,000  Level Anchorage Center
Mon 08:10:21 PM 57.1667 -165.0167 270° West 470 541 40,000  Level Anchorage Center
Mon 08:11:21 PM 57.1833 -165.2667 277° West 480 552 40,000  Level Anchorage Center
Mon 08:12:21 PM 57.1833 -165.5000 270° West 460 529 40,000  Level Anchorage Center
Mon 08:13:21 PM 57.1833 -165.7333 270° West 470 541 40,000  Level Anchorage Center
Mon 08:14:21 PM 57.1833 -165.9833 270° West 470 541 40,000  Level Anchorage Center
Mon 08:15:22 PM 57.1833 -166.2333 270° West 470 541 40,000  Level Anchorage Center
Mon 08:16:22 PM 57.1833 -166.4833 270° West 470 541 40,000  Level Anchorage Center
Mon 08:17:22 PM 57.1833 -166.7167 270° West 480 552 40,000  Level Anchorage Center
Mon 08:18:22 PM 57.1833 -166.9667 270° West 480 552 40,000  Level Anchorage Center
Mon 08:19:22 PM 57.1833 -167.2333 270° West 490 564 40,000  Level Anchorage Center
Mon 08:20:22 PM 57.1833 -167.4833 270° West 480 552 40,000  Level Anchorage Center
Mon 08:21:22 PM 57.1833 -167.7333 270° West 480 552 40,000  Level Anchorage Center
Mon 08:22:22 PM 57.1833 -167.9833 270° West 480 552 40,000  Level Anchorage Center
Mon 08:23:22 PM 57.1833 -168.2333 270° West 480 552 40,000  Level Anchorage Center
Mon 08:24:22 PM 57.1833 -168.4667 270° West 470 541 40,000  Level Anchorage Center
Mon 08:25:22 PM 57.1833 -168.7167 270° West 480 552 40,000  Level Anchorage Center
Mon 08:26:23 PM 57.1667 -168.9833 264° West 480 552 40,000  Level Anchorage Center
Mon 08:27:22 PM 57.1667 -169.2167 270° West 480 552 40,000  Level Anchorage Center
Mon 08:28:22 PM 57.1667 -169.4833 270° West 480 552 40,000  Level Anchorage Center
Mon 08:29:23 PM 57.1667 -169.7333 270° West 490 564 40,000  Level Anchorage Center
Mon 08:30:23 PM 57.1500 -169.9833 263° West 490 564 40,000  Level Anchorage Center
Mon 08:31:29 PM 57.1500 -170.2333 265° West 486 559 40,000  Level Anchorage Center
Mon 08:33:53 PM 57.1167 -170.8500 263° West 480 552 40,000  Level Anchorage Center
Mon 08:34:53 PM 57.1000 -171.1000 263° West 480 552 40,000  Level Anchorage Center
Mon 08:35:53 PM 57.0833 -171.3333 263° West 480 552 40,000  Level Anchorage Center
Mon 08:36:53 PM 57.0667 -171.5833 263° West 480 552 40,000  Level Anchorage Center
Mon 08:37:53 PM 57.0500 -171.8333 263° West 480 552 40,000  Level Anchorage Center
Mon 08:38:00 PM 57.0542 -171.9345 263° West 486 559 40,000  Level FlightAware
Mon 08:38:53 PM 57.0333 -172.0833 263° West 480 552 40,000  Level Anchorage Center
Mon 08:39:00 PM 57.0386 -172.1768 263° West 486 559 40,000  Level FlightAware
Mon 08:39:53 PM 57.0167 -172.3333 263° West 480 552 40,000  Level Anchorage Center
Mon 08:40:53 PM 57.0167 -172.5333 270° West 480 552 40,000  Level Anchorage Center
Mon 08:41:53 PM 57.0000 -172.7667 263° West 490 564 40,000  Level Anchorage Center
Mon 08:42:53 PM 56.9833 -173.0167 263° West 480 552 40,000  Level Anchorage Center
Mon 08:43:53 PM 56.9500 -173.2667 256° West 480 552 40,000  Level Anchorage Center
Mon 08:44:53 PM 56.9333 -173.5167 263° West 490 564 40,000  Level Anchorage Center
Mon 08:45:53 PM 56.9167 -173.7667 263° West 480 552 40,000  Level Anchorage Center
Mon 08:46:54 PM 56.9000 -174.0000 263° West 490 564 40,000  Level Anchorage Center
Mon 08:47:54 PM 56.8833 -174.2500 263° West 480 552 40,000  Level Anchorage Center
Mon 08:48:54 PM 56.8667 -174.5000 263° West 480 552 40,000  Level Anchorage Center
Mon 08:49:54 PM 56.8500 -174.7500 263° West 490 564 40,000  Level Anchorage Center
Mon 08:50:54 PM 56.8167 -175.0000 256° West 490 564 40,000  Level Anchorage Center
Mon 08:51:54 PM 56.8000 -175.2333 263° West 480 552 40,000  Level Anchorage Center
Mon 08:52:54 PM 56.7833 -175.4833 263° West 490 564 40,000  Level Anchorage Center
Mon 08:55:00 PM 56.7636 -175.7323 262° West  Level FlightAware
Mon 08:56:15 PM 56.7167 -176.3000 261° West 489 563 40,000  Level Anchorage Center
Mon 09:00:03 PM 56.6500 -176.9833 260° West 488 562 40,000  Level Anchorage Center
Mon 09:02:00 PM 56.5789 -177.7469 260° West 489 563 40,000  Level FlightAware
Mon 09:03:00 PM 56.5544 -177.9870 259° West 489 563 40,000  Level FlightAware
Mon 09:04:00 PM 56.5293 -178.2268 259° West 489 563 40,000  Level FlightAware
Mon 09:05:00 PM 56.5038 -178.4663 259° West 489 563 40,000  Level FlightAware
Mon 09:06:00 PM 56.4783 -178.6779 259° West 488 562 40,000  Level FlightAware
Mon 09:07:00 PM 56.4519 -178.9187 259° West 488 562 40,000  Level FlightAware
Mon 09:08:00 PM 56.4250 -179.1592 258° West 488 562 40,000  Level FlightAware
Mon 09:08:41 PM 56.4167 -179.3000 258° West 485 558 40,000  Level Anchorage Center
Mon 09:09:00 PM 56.3977 -179.3993 258° West 488 562 40,000  Level FlightAware
Mon 09:10:00 PM 56.3699 -179.6391 258° West 488 562 40,000  Level FlightAware
Mon 09:11:00 PM 56.3416 -179.8785 258° West 488 562 40,000  Level FlightAware
Mon 09:12:00 PM 56.3129 179.8824 258° West 488 562 40,000  Level FlightAware
Mon 09:13:00 PM 56.2837 179.6437 257° West 488 562 40,000  Level FlightAware
Mon 09:14:00 PM 56.2541 179.4054 257° West 488 562 40,000  Level FlightAware
Mon 09:15:00 PM 56.2197 179.1092 257° West 485 558 40,000  Level FlightAware
Mon 09:16:00 PM 56.1899 178.8833 257° West 485 558 40,000  Level FlightAware
Mon 09:17:00 PM 56.1597 178.6578 256° West 485 558 40,000  Level FlightAware
Mon 09:18:00 PM 56.1291 178.4326 256° West 485 558 40,000  Level FlightAware
Mon 09:18:15 PM 56.1333 178.4667 256° West 485 558 40,000  Level Anchorage Center
Mon 09:19:00 PM 56.0981 178.2078 256° West 485 558 40,000  Level FlightAware
Mon 09:20:00 PM 56.0667 177.9833 254° West 485 558 40,000  Level FlightAware
Mon 09:20:23 PM 56.0667 177.9833 254° West 483 556 40,000  Level Anchorage Center
Mon 09:21:00 PM 56.0300 177.7551 254° West 485 558 40,000  Level FlightAware
Mon 09:22:00 PM 55.9929 177.5273 254° West 485 558 40,000  Level FlightAware
Mon 09:23:00 PM 55.9554 177.3000 253° West 485 558 40,000  Level FlightAware
Mon 09:24:00 PM 55.9229 177.1055 253° West 485 558 40,000  Level FlightAware
Mon 09:25:00 PM 55.8860 176.8870 253° West 485 558 40,000  Level FlightAware
Mon 09:25:31 PM 55.8500 176.7667 252° West 470 541 40,000  Level Anchorage Center
Mon 09:26:00 PM 55.8404 176.6206 253° West 483 556 40,000  Level FlightAware
Mon 09:26:31 PM 55.8167 176.5833 252° West 460 529 40,000  Level Anchorage Center
Mon 09:27:00 PM 55.8012 176.3950 253° West 483 556 40,000  Level FlightAware
Mon 09:27:31 PM 55.7833 176.3167 258° West 480 552 40,000  Level Anchorage Center
Mon 09:28:00 PM 55.7617 176.1699 253° West 483 556 40,000  Level FlightAware
Mon 09:28:31 PM 55.7333 176.1167 246° West 480 552 40,000  Level Anchorage Center
Mon 09:29:00 PM 55.7217 175.9453 252° West 483 556 40,000  Level FlightAware
Mon 09:29:31 PM 55.7000 175.8667 257° West 480 552 40,000  Level Anchorage Center
Mon 09:30:00 PM 55.6813 175.7211 252° West 483 556 40,000  Level FlightAware
Mon 09:30:32 PM 55.6500 175.6333 249° West 480 552 40,000  Level Anchorage Center
Mon 09:31:32 PM 55.6167 175.4333 254° West 470 541 40,000  Level Anchorage Center
Mon 09:32:31 PM 55.5667 175.2000 249° West 470 541 40,000  Level Anchorage Center
Mon 09:33:32 PM 55.5333 175.0167 252° West 470 541 40,000  Level Anchorage Center
Mon 09:34:32 PM 55.5000 174.7667 257° West 480 552 40,000  Level Anchorage Center
Mon 09:35:32 PM 55.4500 174.5667 246° West 480 552 40,000  Level Anchorage Center
Mon 09:36:32 PM 55.4167 174.3333 256° West 480 552 40,000  Level Anchorage Center
Mon 09:37:32 PM 55.3667 174.0833 251° West 480 552 40,000  Level Anchorage Center
Mon 09:38:32 PM 55.3167 173.9000 244° Southwest 480 552 40,000  Level Anchorage Center
Mon 09:39:32 PM 55.2667 173.6500 251° West 480 552 40,000  Level Anchorage Center
Mon 09:40:32 PM 55.2333 173.4667 252° West 480 552 40,000  Level Anchorage Center
Mon 09:41:32 PM 55.1833 173.2167 251° West 480 552 40,000  Level Anchorage Center
Mon 09:42:32 PM 55.1500 173.0333 252° West 480 552 40,000  Level Anchorage Center
Mon 09:43:32 PM 55.1000 172.8000 250° West 470 541 40,000  Level Anchorage Center
Mon 09:44:32 PM 55.0500 172.6167 245° Southwest 470 541 40,000  Level Anchorage Center
Mon 09:45:33 PM 55.0167 172.3833 256° West 460 529 40,000  Level Anchorage Center
Mon 09:46:33 PM 54.9500 172.1333 245° Southwest 480 552 40,000  Level Anchorage Center
Mon 09:47:33 PM 54.9167 171.9500 253° West 470 541 40,000  Level Anchorage Center
Mon 09:48:33 PM 54.8333 171.7500 234° Southwest 470 541 40,000  Level Anchorage Center
Mon 09:49:33 PM 54.7667 171.5833 235° Southwest 480 552 40,000  Level Anchorage Center
Mon 09:50:33 PM 54.6833 171.3833 234° Southwest 490 564 40,000  Level Anchorage Center
Mon 09:51:33 PM 54.6000 171.2167 229° Southwest 490 564 40,000  Level Anchorage Center
Mon 09:52:33 PM 54.5167 171.0167 234° Southwest 490 564 40,000  Level Anchorage Center
Mon 09:53:33 PM 54.4333 170.8000 237° Southwest 490 564 40,000  Level Anchorage Center
Mon 09:54:33 PM 54.3667 170.6500 233° Southwest 480 552 40,000  Level Anchorage Center
Mon 09:55:33 PM 54.2833 170.4500 235° Southwest 480 552 40,000  Level Anchorage Center
Mon 09:56:33 PM 54.2167 170.2833 236° Southwest 480 552 40,000  Level Anchorage Center
Mon 09:57:33 PM 54.1333 170.1000 232° Southwest 480 552 40,000  Level Anchorage Center
Mon 09:58:33 PM 54.0500 169.9333 230° Southwest 480 552 40,000  Level Anchorage Center
Mon 09:59:34 PM 53.9667 169.7500 232° Southwest 480 552 40,000  Level Anchorage Center
Mon 10:00:33 PM 53.9000 169.5833 236° Southwest 470 541 40,000  Level Anchorage Center
Mon 10:01:34 PM 53.8167 169.4000 232° Southwest 490 564 40,000  Level Anchorage Center
Mon 10:02:34 PM 53.7333 169.2000 235° Southwest 480 552 40,000  Level Anchorage Center
Mon 10:03:34 PM 53.6667 169.0333 236° Southwest 490 564 40,000  Level Anchorage Center
Mon 10:04:34 PM 53.6000 168.8167 243° Southwest 460 529 40,000  Level Anchorage Center
Mon 10:05:34 PM 53.5500 168.6500 243° Southwest 470 541 40,000  Level Anchorage Center
Mon 10:06:34 PM 53.4667 168.4500 235° Southwest 460 529 40,000  Level Anchorage Center
Mon 10:07:46 PM 53.4167 168.2333 239° Southwest 464 534 40,000  Level Anchorage Center
Mon 10:14:00 PM 53.0090 167.0996 239° Southwest 464 534 40,000  Level FlightAware
Mon 10:15:00 PM 52.9400 166.9127 238° Southwest 464 534 40,000  Level FlightAware
Mon 10:16:00 PM 52.8708 166.7264 238° Southwest 464 534 40,000  Level FlightAware
Mon 10:16:10 PM 52.8833 166.7500 238° Southwest 453 521 40,000  Level Anchorage Center
Mon 10:17:00 PM 52.8012 166.5407 238° Southwest 464 534 40,000  Level FlightAware
Mon 10:18:00 PM 52.7313 166.3557 238° Southwest 464 534 40,000  Level FlightAware
Mon 10:19:00 PM 52.6612 166.1712 238° Southwest 464 534 40,000  Level FlightAware
Mon 10:20:00 PM 52.5908 165.9873 238° Southwest 464 534 40,000  Level FlightAware
Mon 10:21:00 PM 52.5201 165.8040 238° Southwest 464 534 40,000  Level FlightAware
Mon 10:22:00 PM 52.4813 165.6975 237° Southwest 453 521 40,000  Level FlightAware
Mon 10:23:00 PM 52.4134 165.5239 237° Southwest 453 521 40,000  Level FlightAware
Mon 10:24:00 PM 52.3452 165.3509 237° Southwest 453 521 40,000  Level FlightAware
Mon 10:25:00 PM 52.2768 165.1784 237° Southwest 453 521 40,000  Level FlightAware
Mon 10:25:28 PM 52.2333 165.0667 237° Southwest 454 522 40,000  Level Anchorage Center
Mon 10:26:00 PM 52.2081 165.0065 237° Southwest 453 521 40,000  Level FlightAware
Mon 10:27:00 PM 52.1392 164.8351 237° Southwest 453 521 40,000  Level FlightAware
Mon 10:28:00 PM 52.0701 164.6642 237° Southwest 453 521 40,000  Level FlightAware
Mon 10:29:00 PM 52.0007 164.4939 236° Southwest 453 521 40,000  Level FlightAware
Mon 10:30:00 PM 51.9310 164.3240 236° Southwest 453 521 40,000  Level FlightAware
Mon 10:31:00 PM 51.8463 164.1181 236° Southwest 454 522 40,000  Level FlightAware
Mon 10:32:00 PM 51.7811 163.9616 236° Southwest 454 522 40,000  Level FlightAware
Mon 10:33:00 PM 51.7156 163.8056 236° Southwest 454 522 40,000  Level FlightAware
Mon 10:33:56 PM 51.6500 163.6500 236° Southwest 458 527 40,000  Level Anchorage Center
Mon 10:34:00 PM 51.6500 163.6500 236° Southwest 454 522 40,000  Level FlightAware
Mon 10:35:00 PM 51.5813 163.4843 236° Southwest 454 522 40,000  Level FlightAware
Mon 10:35:04 PM 51.5667 163.4333 236° Southwest 462 532 40,000  Level Anchorage Center
Mon 10:36:00 PM 51.5123 163.3192 236° Southwest 454 522 40,000  Level FlightAware
Mon 10:37:00 PM 51.4431 163.1546 236° Southwest 454 522 40,000  Level FlightAware
Mon 10:38:00 PM 51.3737 162.9904 236° Southwest 454 522 40,000  Level FlightAware
Mon 10:39:00 PM 51.3041 162.8268 236° Southwest 454 522 40,000  Level FlightAware
Mon 10:40:00 PM 51.2181 162.6260 236° Southwest 458 527 40,000  Level FlightAware
Mon 10:41:00 PM 51.1358 162.4238 235° Southwest 462 532 40,000  Level FlightAware
Mon 10:42:00 PM 51.0632 162.2574 235° Southwest 462 532 40,000  Level FlightAware
Mon 10:43:00 PM 50.9903 162.0915 235° Southwest 462 532 40,000  Level FlightAware
Mon 10:44:00 PM 50.9172 161.9262 235° Southwest 462 532 40,000  Level FlightAware
Mon 10:44:41 PM 50.8833 161.8667 235° Southwest 458 527 40,000  Level Anchorage Center
Mon 10:45:00 PM 50.8439 161.7613 235° Southwest 462 532 40,000  Level FlightAware
Mon 10:46:00 PM 50.7703 161.5970 235° Southwest 462 532 40,000  Level FlightAware
Mon 10:47:00 PM 50.6965 161.4332 234° Southwest 462 532 40,000  Level FlightAware
Mon 10:48:00 PM 50.6225 161.2699 234° Southwest 462 532 40,000  Level FlightAware
Mon 10:49:00 PM 50.5482 161.1071 234° Southwest 462 532 40,000  Level FlightAware
Mon 10:50:00 PM 50.4737 160.9448 234° Southwest 462 532 40,000  Level FlightAware
Mon 10:51:00 PM 50.3796 160.7504 234° Southwest 458 527 40,000  Level FlightAware
Mon 10:52:00 PM 50.3068 160.5929 234° Southwest 458 527 40,000  Level FlightAware
Mon 10:53:00 PM 50.2338 160.4359 234° Southwest 458 527 40,000  Level FlightAware
Mon 10:54:00 PM 50.1605 160.2793 234° Southwest 458 527 40,000  Level FlightAware
Mon 10:54:19 PM 50.1833 160.3333 234° Southwest 453 521 40,000  Level Anchorage Center
Mon 10:55:00 PM 50.0871 160.1232 234° Southwest 458 527 40,000  Level FlightAware
Mon 10:56:00 PM 50.0134 159.9676 234° Southwest 458 527 40,000  Level FlightAware
Mon 10:57:00 PM 49.9395 159.8125 233° Southwest 458 527 40,000  Level FlightAware
Mon 10:58:00 PM 49.8654 159.6579 233° Southwest 458 527 40,000  Level FlightAware
Mon 10:59:00 PM 49.7911 159.5037 233° Southwest 458 527 40,000  Level FlightAware
Mon 11:00:00 PM 49.7167 159.3500 233° Southwest 453 521 40,000  Level FlightAware
Mon 11:01:00 PM 49.6445 159.2026 233° Southwest 453 521 40,000  Level FlightAware
Mon 11:02:00 PM 49.5721 159.0556 233° Southwest 453 521 40,000  Level FlightAware
Mon 11:03:00 PM 49.4995 158.9090 233° Southwest 453 521 40,000  Level FlightAware
Mon 11:04:00 PM 49.4267 158.7629 232° Southwest 453 521 40,000  Level FlightAware
Mon 11:05:00 PM 49.3538 158.6172 232° Southwest 453 521 40,000  Level FlightAware
Mon 11:06:00 PM 49.2806 158.4719 232° Southwest 453 521 40,000  Level FlightAware
Mon 11:07:00 PM 49.2073 158.3271 232° Southwest 453 521 40,000  Level FlightAware
Mon 11:08:00 PM 49.1338 158.1827 232° Southwest 453 521 40,000  Level FlightAware
Mon 11:09:00 PM 49.0601 158.0387 232° Southwest 453 521 40,000  Level FlightAware
Mon 11:10:00 PM 48.9863 157.8952 232° Southwest 453 521 40,000  Level FlightAware
Mon 11:11:00 PM 48.9123 157.7520 232° Southwest 453 521 40,000  Level FlightAware
Mon 11:12:00 PM 48.8381 157.6093 232° Southwest 453 521 40,000  Level FlightAware
Mon 11:13:00 PM 48.7637 157.4671 232° Southwest 453 521 40,000  Level FlightAware
Mon 11:14:00 PM 48.6891 157.3252 231° Southwest 453 521 40,000  Level FlightAware
Mon 11:15:00 PM 48.6144 157.1838 231° Southwest 453 521 40,000  Level FlightAware
Mon 11:16:00 PM 48.5395 157.0428 231° Southwest 453 521 40,000  Level FlightAware
Mon 11:17:00 PM 48.4644 156.9022 231° Southwest 453 521 40,000  Level FlightAware
Mon 11:18:00 PM 48.3891 156.7620 231° Southwest 453 521 40,000  Level FlightAware
Mon 11:19:00 PM 48.3137 156.6222 231° Southwest 453 521 40,000  Level FlightAware
Mon 11:20:00 PM 48.2381 156.4829 231° Southwest 453 521 40,000  Level FlightAware
Mon 11:21:00 PM 48.1624 156.3439 231° Southwest 453 521 40,000  Level FlightAware
Mon 11:22:00 PM 48.0865 156.2054 231° Southwest 453 521 40,000  Level FlightAware
Mon 11:23:00 PM 48.0104 156.0673 230° Southwest 453 521 40,000  Level FlightAware
Mon 11:24:00 PM 47.9341 155.9296 230° Southwest 453 521 40,000  Level FlightAware
Mon 11:25:00 PM 47.8577 155.7923 230° Southwest 453 521 40,000  Level FlightAware
Mon 11:26:00 PM 47.7811 155.6553 230° Southwest 453 521 40,000  Level FlightAware
Mon 11:27:00 PM 47.7044 155.5188 230° Southwest 453 521 40,000  Level FlightAware
Mon 11:28:00 PM 47.6275 155.3828 230° Southwest 453 521 40,000  Level FlightAware
Mon 11:29:00 PM 47.5504 155.2471 230° Southwest 453 521 40,000  Level FlightAware
Mon 11:30:00 PM 47.4732 155.1117 230° Southwest 453 521 40,000  Level FlightAware
Mon 11:31:00 PM 47.3958 154.9768 230° Southwest 453 521 40,000  Level FlightAware
Mon 11:32:00 PM 47.3183 154.8423 230° Southwest 453 521 40,000  Level FlightAware
Mon 11:33:00 PM 47.2406 154.7082 229° Southwest 453 521 40,000  Level FlightAware
Mon 11:34:00 PM 47.1627 154.5745 229° Southwest 453 521 40,000  Level FlightAware
Mon 11:35:00 PM 47.0847 154.4412 229° Southwest 453 521 40,000  Level FlightAware
Mon 11:36:00 PM 47.0066 154.3082 229° Southwest 453 521 40,000  Level FlightAware
Mon 11:37:00 PM 46.9283 154.1757 229° Southwest 453 521 40,000  Level FlightAware
Mon 11:38:00 PM 46.8498 154.0435 229° Southwest 453 521 40,000  Level FlightAware
Mon 11:39:00 PM 46.7712 153.9117 229° Southwest 453 521 40,000  Level FlightAware
Mon 11:40:00 PM 46.6924 153.7803 229° Southwest 453 521 40,000  Level FlightAware
Mon 11:41:00 PM 46.6135 153.6494 229° Southwest 453 521 40,000  Level FlightAware
Mon 11:42:00 PM 46.5344 153.5187 229° Southwest 453 521 40,000  Level FlightAware
Mon 11:43:00 PM 46.4552 153.3885 228° Southwest 453 521 40,000  Level FlightAware
Mon 11:44:00 PM 46.3758 153.2586 228° Southwest 453 521 40,000  Level FlightAware
Mon 11:45:00 PM 46.2963 153.1291 228° Southwest 453 521 40,000  Level FlightAware
Mon 11:46:00 PM 46.2131 152.9943 228° Southwest  Level FlightAware
Mon 11:47:00 PM 46.2095 152.9886 228° Southwest  Level FlightAware
Mon 11:48:00 PM 46.1257 152.8549 228° Southwest  Level FlightAware
Mon 11:49:00 PM 46.0417 152.7216 228° Southwest  Level FlightAware
Mon 11:50:00 PM 45.9575 152.5887 228° Southwest  Level FlightAware
Mon 11:51:00 PM 45.8731 152.4561 228° Southwest  Level FlightAware
Mon 11:52:00 PM 45.7887 152.3240 228° Southwest  Level FlightAware
Mon 11:53:00 PM 45.7040 152.1923 227° Southwest  Level FlightAware
Mon 11:54:00 PM 45.6192 152.0610 227° Southwest  Level FlightAware
Mon 11:55:00 PM 45.5343 151.9301 227° Southwest  Level FlightAware
Mon 11:56:00 PM 45.4492 151.7995 227° Southwest  Level FlightAware
Mon 11:57:00 PM 45.3640 151.6694 227° Southwest  Level FlightAware
Mon 11:58:00 PM 45.2786 151.5397 227° Southwest  Level FlightAware
Mon 11:59:00 PM 45.1931 151.4103 227° Southwest  Level FlightAware
Tue 12:00:00 AM 45.1074 151.2814 227° Southwest  Level FlightAware
Tue 12:01:00 AM 45.0215 151.1528 227° Southwest  Level FlightAware
Tue 12:02:00 AM 44.9356 151.0246 227° Southwest  Level FlightAware
Tue 12:03:00 AM 44.8495 150.8968 226° Southwest  Level FlightAware
Tue 12:04:00 AM 44.7632 150.7694 226° Southwest  Level FlightAware
Tue 12:05:00 AM 44.6768 150.6423 226° Southwest  Level FlightAware
Tue 12:06:00 AM 44.5903 150.5157 226° Southwest  Level FlightAware
Tue 12:07:00 AM 44.5036 150.3894 226° Southwest  Level FlightAware
Tue 12:08:00 AM 44.4177 150.2647 226° Southwest  Level FlightAware
Tue 12:09:00 AM 44.3316 150.1405 226° Southwest  Level FlightAware
Tue 12:10:00 AM 44.2454 150.0166 226° Southwest  Level FlightAware
Tue 12:11:00 AM 44.1591 149.8930 226° Southwest  Level FlightAware
Tue 12:12:00 AM 44.0727 149.7698 226° Southwest  Level FlightAware
Tue 12:13:00 AM 43.9860 149.6470 226° Southwest  Level FlightAware
Tue 12:14:00 AM 43.8993 149.5245 226° Southwest  Level FlightAware
Tue 12:15:00 AM 43.8125 149.4024 225° Southwest  Level FlightAware
Tue 12:16:00 AM 43.7255 149.2806 225° Southwest  Level FlightAware
Tue 12:17:00 AM 43.6384 149.1592 225° Southwest  Level FlightAware
Tue 12:18:00 AM 43.5511 149.0382 225° Southwest  Level FlightAware
Tue 12:19:00 AM 43.4637 148.9175 225° Southwest  Level FlightAware
Tue 12:19:04 AM 43.4400 148.8850 225° Southwest 410 472 40,000  Level FlightAware
Tue 12:19:39 AM 43.3970 148.8250 225° Southwest 412 474 40,000  Level FlightAware
Tue 12:20:14 AM 43.3460 148.7550 225° Southwest 410 472 40,000  Level FlightAware
Tue 12:20:54 AM 43.2920 148.6810 225° Southwest 410 472 40,000  Level FlightAware
Tue 12:21:29 AM 43.2450 148.6170 225° Southwest 411 473 40,000  Level FlightAware
Tue 12:22:09 AM 43.1910 148.5440 225° Southwest 410 472 40,000  Level FlightAware
Tue 12:22:39 AM 43.1510 148.4890 225° Southwest 409 471 40,000  Level FlightAware
Tue 12:23:14 AM 43.1050 148.4270 225° Southwest 409 471 40,000  Level FlightAware
Tue 12:23:49 AM 43.0570 148.3620 225° Southwest 410 472 40,000  Level FlightAware
Tue 12:24:24 AM 43.0100 148.2980 225° Southwest 410 472 40,000  Level FlightAware
Tue 12:24:59 AM 42.9630 148.2350 224° Southwest 410 472 40,000  Level FlightAware
Tue 12:25:34 AM 42.9160 148.1720 224° Southwest 409 471 40,000  Level FlightAware
Tue 12:26:14 AM 42.8610 148.0980 225° Southwest 409 471 40,000  Level FlightAware
Tue 12:26:44 AM 42.8210 148.0450 224° Southwest 408 470 40,000  Level FlightAware
Tue 12:27:19 AM 42.7760 147.9840 225° Southwest 406 467 40,000  Level FlightAware
Tue 12:27:54 AM 42.7290 147.9210 225° Southwest 405 466 40,000  Level FlightAware
Tue 12:28:34 AM 42.6750 147.8500 224° Southwest 405 466 40,000  Level FlightAware
Tue 12:29:04 AM 42.6340 147.7950 225° Southwest 405 466 40,000  Level FlightAware
Tue 12:29:39 AM 42.5860 147.7330 224° Southwest 405 466 40,000  Level FlightAware
Tue 12:30:14 AM 42.5400 147.6710 225° Southwest 403 464 40,000  Level FlightAware
Tue 12:30:49 AM 42.4930 147.6090 224° Southwest 404 465 40,000  Level FlightAware
Tue 12:31:24 AM 42.4470 147.5480 224° Southwest 405 466 40,000  Level FlightAware
Tue 12:31:59 AM 42.3990 147.4860 224° Southwest 405 466 40,000  Level FlightAware
Tue 12:32:39 AM 42.3450 147.4150 224° Southwest 406 467 40,000  Level FlightAware
Tue 12:33:09 AM 42.3050 147.3630 224° Southwest 407 468 40,000  Level FlightAware
Tue 12:33:44 AM 42.2580 147.3010 224° Southwest 405 466 40,000  Level FlightAware
Tue 12:34:24 AM 42.2030 147.2300 224° Southwest 403 464 40,000  Level FlightAware
Tue 12:34:54 AM 42.1630 147.1780 224° Southwest 403 464 40,000  Level FlightAware
Tue 12:35:30 AM 42.1160 147.1170 224° Southwest 400 460 40,000  Level FlightAware
Tue 12:36:04 AM 42.0710 147.0580 224° Southwest 398 458 40,000  Level FlightAware
Tue 12:36:39 AM 42.0240 146.9980 223° Southwest 398 458 40,000  Level FlightAware
Tue 12:37:14 AM 41.9770 146.9370 224° Southwest 391 450 40,000  Level FlightAware
Tue 12:37:54 AM 41.9240 146.8690 224° Southwest 397 457 40,000  Level FlightAware
Tue 12:38:24 AM 41.8840 146.8180 224° Southwest 398 458 40,000  Level FlightAware
Tue 12:38:59 AM 41.8370 146.7580 224° Southwest 399 459 40,000  Level FlightAware
Tue 12:39:34 AM 41.7910 146.6990 224° Southwest 400 460 40,000  Level FlightAware
Tue 12:40:14 AM 41.7380 146.6310 224° Southwest 398 458 40,000  Level FlightAware
Tue 12:40:44 AM 41.6980 146.5800 224° Southwest 398 458 40,000  Level FlightAware
Tue 12:41:24 AM 41.6440 146.5110 224° Southwest 398 458 40,000  Level FlightAware
Tue 12:41:54 AM 41.6050 146.4610 224° Southwest 399 459 40,000  Level FlightAware
Tue 12:42:29 AM 41.5580 146.4020 223° Southwest 400 460 40,000  Level FlightAware
Tue 12:43:09 AM 41.5040 146.3340 223° Southwest 401 461 40,000  Level FlightAware
Tue 12:43:39 AM 41.4630 146.2820 224° Southwest 401 461 40,000  Level FlightAware
Tue 12:44:14 AM 41.4160 146.2230 223° Southwest 401 461 40,000  Level FlightAware
Tue 12:44:49 AM 41.3690 146.1630 224° Southwest 400 460 40,000  Level FlightAware
Tue 12:45:29 AM 41.3150 146.0960 223° Southwest 399 459 40,000  Level FlightAware
Tue 12:45:59 AM 41.2750 146.0460 223° Southwest 399 459 40,000  Level FlightAware
Tue 12:46:34 AM 41.2280 145.9870 223° Southwest 399 459 40,000  Level FlightAware
Tue 12:47:09 AM 41.1810 145.9290 223° Southwest 401 461 40,000  Level FlightAware
Tue 12:47:44 AM 41.1340 145.8700 223° Southwest 401 461 40,000  Level FlightAware
Tue 12:48:19 AM 41.0860 145.8110 223° Southwest 401 461 40,000  Level FlightAware
Tue 12:48:54 AM 41.0390 145.7530 223° Southwest 401 461 40,000  Level FlightAware
Tue 12:49:29 AM 40.9910 145.6930 223° Southwest 402 463 40,000  Level FlightAware
Tue 12:50:09 AM 40.9380 145.6280 223° Southwest 397 457 40,000  Level FlightAware
Tue 12:50:39 AM 40.8960 145.5760 223° Southwest 397 457 40,000  Level FlightAware
Tue 12:51:14 AM 40.8480 145.5170 223° Southwest 397 457 40,000  Level FlightAware
Tue 12:51:49 AM 40.8000 145.4580 223° Southwest 397 457 40,000  Level FlightAware
Tue 12:52:24 AM 40.7530 145.4010 223° Southwest 396 456 40,000  Level FlightAware
Tue 12:52:59 AM 40.7060 145.3440 223° Southwest 401 461 40,000  Level FlightAware
Tue 12:53:52 AM 40.6430 145.2670 223° Southwest 399 459 40,000  Level FlightAware
Tue 12:54:24 AM 40.5950 145.2080 223° Southwest 401 461 40,000  Level FlightAware
Tue 12:55:08 AM 40.5370 145.1380 223° Southwest 396 456 40,000  Level FlightAware
Tue 12:55:44 AM 40.4960 145.0880 223° Southwest 396 456 40,000  Level FlightAware
Tue 12:56:20 AM 40.4550 145.0380 223° Southwest 396 456 40,000  Level FlightAware
Tue 12:56:54 AM 40.3840 144.9540 222° Southwest 398 458 40,000  Level FlightAware
Tue 12:57:24 AM 40.3430 144.9040 223° Southwest 397 457 40,000  Level FlightAware
Tue 12:58:04 AM 40.2880 144.8380 222° Southwest 396 456 40,000  Level FlightAware
Tue 12:58:34 AM 40.2480 144.7900 222° Southwest 397 457 40,000  Level FlightAware
Tue 12:59:21 AM 40.1920 144.7220 223° Southwest 397 457 40,000  Level FlightAware
Tue 12:59:57 AM 40.1510 144.6720 223° Southwest 397 457 40,000  Level FlightAware
Tue 01:00:33 AM 40.1100 144.6220 223° Southwest 397 457 40,000  Level FlightAware
Tue 01:01:09 AM 40.0690 144.5720 223° Southwest 397 457 40,000  Level FlightAware
Tue 01:01:45 AM 40.0280 144.5220 223° Southwest 397 457 40,000  Level FlightAware
Tue 01:02:21 AM 39.9870 144.4720 223° Southwest 397 457 40,000  Level FlightAware
Tue 01:02:58 AM 39.9440 144.4200 223° Southwest 397 457 40,000  Level FlightAware
Tue 01:03:34 AM 39.9030 144.3700 223° Southwest 397 457 40,000  Level FlightAware
Tue 01:04:10 AM 39.8620 144.3200 223° Southwest 397 457 40,000  Level FlightAware
Tue 01:04:47 AM 39.8200 144.2690 223° Southwest 397 457 40,000  Level FlightAware
Tue 01:05:23 AM 39.7790 144.2190 223° Southwest 397 457 40,000  Level FlightAware
Tue 01:05:57 AM 39.6350 144.0660 219° Southwest 40,000  Level FlightAware
Tue 01:06:27 AM 39.5960 144.0200 222° Southwest 400 460 40,000  Level FlightAware
Tue 01:07:07 AM 39.5360 143.9510 222° Southwest 407 468 40,000  Level FlightAware
Tue 01:07:42 AM 39.4860 143.8930 222° Southwest 408 470 40,000  Level FlightAware
Tue 01:08:17 AM 39.4370 143.8360 222° Southwest 410 472 40,000  Level FlightAware
Tue 01:08:52 AM 39.3880 143.7790 222° Southwest 410 472 40,000  Level FlightAware
Tue 01:09:26 AM 39.3390 143.7220 222° Southwest 410 472 40,000  Level FlightAware
Tue 01:10:04 AM 39.2850 143.6600 222° Southwest 410 472 40,000  Level FlightAware
Tue 01:10:47 AM 39.2250 143.5910 222° Southwest 412 474 40,000  Level FlightAware
Tue 01:11:35 AM 39.1600 143.5170 221° Southwest 412 474 40,000  Level FlightAware
Tue 01:12:07 AM 39.1110 143.4610 222° Southwest 410 472 40,000  Level FlightAware
Tue 01:12:42 AM 39.0610 143.4040 222° Southwest 410 472 40,000  Level FlightAware
Tue 01:13:17 AM 39.0120 143.3480 222° Southwest 409 471 40,000  Level FlightAware
Tue 01:13:47 AM 38.9660 143.3020 218° Southwest 424 488 40,000  Level FlightAware
Tue 01:14:07 AM 38.9280 143.2870 197° South 452 520 40,000  Level FlightAware
Tue 01:14:42 AM 38.8560 143.2720 189° South 445 512 40,000  Level FlightAware
Tue 01:15:17 AM 38.7870 143.2450 197° South 439 505 40,000  Level FlightAware
Tue 01:15:52 AM 38.7200 143.2170 198° South 438 504 40,000  Level FlightAware
Tue 01:16:22 AM 38.6660 143.1950 198° South 439 505 40,000  Level FlightAware
Tue 01:17:02 AM 38.5850 143.1600 199° South 438 504 40,000  Level FlightAware
Tue 01:17:36 AM 38.5180 143.1320 198° South 438 504 40,000  Level FlightAware
Tue 01:18:12 AM 38.4520 143.1040 198° South 441 507 40,000  Level FlightAware
Tue 01:18:52 AM 38.3720 143.0700 198° South 441 507 40,000  Level FlightAware
Tue 01:19:22 AM 38.3140 143.0460 198° South 442 509 40,000  Level FlightAware
Tue 01:19:57 AM 38.2450 143.0170 198° South 443 510 40,000  Level FlightAware
Tue 01:20:32 AM 38.1770 142.9890 198° South 444 511 40,000  Level FlightAware
Tue 01:21:07 AM 38.1090 142.9600 199° South 438 504 40,000  Level FlightAware
Tue 01:21:42 AM 38.0400 142.9320 198° South 439 505 40,000  Level FlightAware
Tue 01:22:17 AM 37.9720 142.9040 198° South 438 504 40,000 -486 Level FlightAware
Tue 01:22:56 AM 37.8950 142.8720 198° South 437 503 39,400 -1,217 Descending FlightAware
Tue 01:23:26 AM 37.8340 142.8460 199° South 441 507 38,600 -1,662 Descending FlightAware
Tue 01:24:01 AM 37.7650 142.8180 198° South 453 521 37,600 -1,543 Descending FlightAware
Tue 01:24:36 AM 37.6950 142.7890 198° South 453 521 36,800 -1,371 Descending FlightAware
Tue 01:25:11 AM 37.6250 142.7600 198° South 454 522 36,000 -1,437 Descending FlightAware
Tue 01:25:47 AM 37.5550 142.7310 198° South 455 524 35,100 -1,543 Descending FlightAware
Tue 01:26:21 AM 37.4840 142.7030 197° South 457 526 34,200 -892 Descending FlightAware
Tue 01:27:01 AM 37.4040 142.6700 198° South 455 524 34,000 -171 Descending FlightAware
Tue 01:27:31 AM 37.3440 142.6450 198° South 455 524 34,000  Level FlightAware
Tue 01:28:46 AM 37.1940 142.5840 198° South 456 525 34,000  Level FlightAware
Tue 01:29:22 AM 37.1230 142.5550 198° South 457 526 34,000  Level FlightAware
Tue 01:30:01 AM 37.0420 142.5230 198° South 458 527 34,000  Level FlightAware
Tue 01:30:36 AM 36.9750 142.4960 198° South 457 526 34,000  Level FlightAware
Tue 01:31:16 AM 36.8910 142.4620 198° South 458 527 34,000  Level FlightAware
Tue 01:31:46 AM 36.8320 142.4380 198° South 458 527 34,000  Level FlightAware
Tue 01:32:23 AM 36.7600 142.4090 198° South 459 528 34,000  Level FlightAware
Tue 01:32:56 AM 36.6900 142.3810 198° South 459 528 34,000 -329 Level FlightAware
Tue 01:33:36 AM 36.6090 142.3490 198° South 453 521 33,600 -960 Descending FlightAware
Tue 01:34:11 AM 36.5410 142.3220 198° South 457 526 32,800 -1,371 Descending FlightAware
Tue 01:34:46 AM 36.4680 142.2920 198° South 459 528 32,000 -1,015 Descending FlightAware
Tue 01:35:16 AM 36.4090 142.2690 197° South 453 521 31,700 -554 Descending FlightAware
Tue 01:35:51 AM 36.3380 142.2410 198° South 439 505 31,400 -640 Descending FlightAware
Tue 01:36:31 AM 36.2620 142.2110 198° South 440 506 30,900 -943 Descending FlightAware
Tue 01:37:01 AM 36.2030 142.1880 197° South 436 502 30,300 -880 Descending FlightAware
Tue 01:37:46 AM 36.1200 142.1550 198° South 403 464 29,800 -977 Descending FlightAware
Tue 01:38:27 AM 36.0530 142.1290 197° South 389 448 28,900 -1,833 Descending FlightAware
Tue 01:38:58 AM 35.9960 142.1060 198° South 379 436 27,600 -2,522 Descending FlightAware
Tue 01:39:36 AM 35.9370 142.0830 198° South 371 427 26,000 -2,877 Descending FlightAware
Tue 01:40:11 AM 35.8750 142.0580 198° South 375 432 24,100 -2,690 Descending FlightAware
Tue 01:41:03 AM 35.7970 142.0280 197° South 369 425 22,100 -2,268 Descending FlightAware
Tue 01:41:33 AM 35.7430 142.0070 198° South 369 425 21,000 -1,652 Descending FlightAware
Tue 01:42:12 AM 35.6830 141.9840 197° South 340 391 20,200 -1,437 Descending FlightAware
Tue 01:42:44 AM 35.6380 141.9660 198° South 342 394 19,300 -1,655 Descending FlightAware
Tue 01:43:10 AM 35.6070 141.9380 216° Southwest 321 369 18,600 -1,826 Descending FlightAware
Tue 01:43:30 AM 35.5920 141.9020 243° Southwest 310 357 17,900 -1,935 Descending FlightAware
Tue 01:43:41 AM 35.5900 141.8870 261° West 311 358 17,600 -1,733 Descending FlightAware
Tue 01:44:15 AM 35.5860 141.8190 266° West 315 362 16,600 -1,371 Descending FlightAware
Tue 01:44:51 AM 35.5830 141.7580 267° West 312 359 16,000 -419 Descending FlightAware
Tue 01:45:41 AM 35.5780 141.6720 266° West 310 357 16,000 -214 Level FlightAware
Tue 01:46:15 AM 35.5740 141.6110 265° West 311 358 15,700 -1,000 Descending FlightAware
Tue 01:46:59 AM 35.5700 141.5290 267° West 307 353 14,700 -1,154 Descending FlightAware
Tue 01:47:33 AM 35.5750 141.4770 277° West 299 344 14,200 -1,091 Descending FlightAware
Tue 01:47:43 AM 35.5830 141.4580 297° West 294 338 13,900 -1,395 Descending FlightAware
Tue 01:48:16 AM 35.6030 141.4150 300° West 291 335 13,200 -957 Descending FlightAware
Tue 01:48:52 AM 35.6280 141.3570 298° West 295 339 12,800 -507 Descending FlightAware
Tue 01:49:27 AM 35.6490 141.3110 299° West 290 334 12,600 -806 Descending FlightAware
Tue 01:49:59 AM 35.6710 141.2630 299° West 283 326 11,900 -1,371 Descending FlightAware
Tue 01:50:37 AM 35.6960 141.2070 299° West 279 321 11,000 -1,286 Descending FlightAware
Tue 01:51:09 AM 35.7160 141.1630 299° West 276 318 10,400 -943 Descending FlightAware
Tue 01:51:47 AM 35.7390 141.1120 299° West 251 289 9,900 -875 Descending FlightAware
Tue 01:51:57 AM 35.7450 141.0980 298° West 252 290 9,700 -1,273 Descending FlightAware
Tue 01:52:20 AM 35.7560 141.0720 298° West 254 292 9,200 -1,245 Descending FlightAware
Tue 01:52:50 AM 35.7680 141.0310 290° West 259 298 8,600 -1,080 Descending FlightAware
Tue 01:53:10 AM 35.7600 141.0060 248° West 264 304 8,300 -1,313 Descending FlightAware
Tue 01:53:22 AM 35.7450 140.9910 219° Southwest 271 312 7,900 -1,655 Descending FlightAware
Tue 01:53:39 AM 35.7280 140.9850 196° South 280 322 7,500 -1,588 Descending FlightAware
Tue 01:53:56 AM 35.7030 140.9790 191° South 291 335 7,000 -1,500 Descending FlightAware
Tue 01:54:11 AM 35.6800 140.9740 190° South 282 325 6,700 -1,111 Descending FlightAware
Tue 01:54:23 AM 35.6640 140.9690 194° South 276 318 6,500 -750 Descending FlightAware
Tue 01:54:35 AM 35.6550 140.9640 204° Southwest 275 316 6,400 -1,304 Descending FlightAware
Tue 01:54:46 AM 35.6360 140.9500 211° Southwest 283 326 6,000 -1,636 Descending FlightAware
Tue 01:55:08 AM 35.6150 140.9310 216° Southwest 277 319 5,500 -1,317 Descending FlightAware
Tue 01:55:27 AM 35.5990 140.9060 232° Southwest 275 316 5,100 -1,500 Descending FlightAware
Tue 01:55:44 AM 35.5850 140.8850 231° Southwest 278 320 4,600 -1,500 Descending FlightAware
Tue 01:56:07 AM 35.5690 140.8580 234° Southwest 284 327 4,100 -1,273 Descending FlightAware
Tue 01:56:17 AM 35.5600 140.8410 237° Southwest 288 331 3,900 -857 Descending FlightAware
Tue 01:56:28 AM 35.5560 140.8280 249° West 278 320 3,800 -375 Descending FlightAware
Tue 01:56:33 AM 35.5550 140.8180 263° West 270 311 3,800  Level FlightAware
Tue 01:56:48 AM 35.5550 140.7960 270° West 260 299 3,800  Level FlightAware
Tue 01:57:08 AM 35.5550 140.7680 270° West 258 297 3,800  Level FlightAware
Tue 01:57:29 AM 35.5550 140.7360 270° West 255 293 3,800  Level FlightAware
Tue 01:57:52 AM 35.5560 140.7020 272° West 255 293 3,800  Level FlightAware
Tue 01:58:08 AM 35.5560 140.6780 270° West 254 292 3,800  Level FlightAware
Tue 01:58:32 AM 35.5560 140.6450 270° West 251 289 3,800  Level FlightAware
Tue 01:58:57 AM 35.5570 140.6140 272° West 234 269 3,800  Level FlightAware
Tue 01:59:21 AM 35.5530 140.5790 262° West 216 249 3,800  Level FlightAware
Tue 01:59:42 AM 35.5490 140.5540 259° West 200 230 3,800  Level FlightAware
Tue 02:00:02 AM 35.5540 140.5350 288° West 177 204 3,800  Level FlightAware
Tue 02:00:16 AM 35.5580 140.5270 302° West 168 193 3,800  Level FlightAware
Tue 02:00:27 AM 35.5670 140.5180 321° Northwest 162 186 3,800  Level FlightAware
Tue 02:00:37 AM 35.5720 140.5140 327° Northwest 167 192 3,800 -750 Level FlightAware
Tue 02:01:15 AM 35.6000 140.4940 330° Northwest 164 189 3,200 -960 Descending FlightAware
Tue 02:01:27 AM 35.6080 140.4880 329° Northwest 164 189 3,000 -833 Descending FlightAware
Tue 02:01:51 AM 35.6240 140.4770 331° Northwest 162 186 2,700 -818 Descending FlightAware
Tue 02:02:11 AM 35.6360 140.4680 329° Northwest 161 185 2,400 -900 Descending FlightAware
Tue 02:02:31 AM 35.6490 140.4590 331° Northwest 163 188 2,100 -882 Descending FlightAware
Tue 02:02:45 AM 35.6580 140.4520 328° Northwest 163 188 1,900 -882 Descending FlightAware
Tue 02:03:05 AM 35.6710 140.4430 331° Northwest 160 184 1,600 -1,000 Descending FlightAware
Tue 02:03:21 AM 35.6820 140.4350 329° Northwest 157 181 1,300 -882 Descending FlightAware
Tue 02:03:39 AM 35.6930 140.4270 329° Northwest 142 163 1,100 -600 Descending FlightAware
Tue 02:04:01 AM 35.7040 140.4190 329° Northwest 140 161 900 -649 Descending FlightAware
Tue 02:04:16 AM 35.7130 140.4130 332° Northwest 141 162 700 -818 Descending FlightAware
Tue 02:04:45 AM 35.7290 140.4010 329° Northwest 141 162 300 -800 Descending FlightAware
Tue 02:05:01 AM 35.7390 140.3940 330° Northwest 139 160 100 -293 Descending FlightAware
Tue 02:05:26 AM 35.7510 140.3850 329° Northwest 139 160 100  Level FlightAware

Login

Don't have an account? Register now (free) for customized features, flight alerts, and more!